VY8755 / EC-MUM 7700 Squawk Report (28th of July, 2021)

Aircraft A320 Reg No. EC-MUM Age 11 years old
Model A320 Jet engines 2 First flight 06-11-09
Registered 01-02-18 Rollout 10-09 Delivered 18-11-09
Construction No. 4101 Line No. N/A Series 214
ADSHEX 345614 Airline name Vueling Airlines Owner N/A
Airfield based Barcelona~Cataluna~EC First tracked N/A

Flight history for EC-MUM

Route Flight No Date Playback
Schiphol (AMS) - Barcelona–El Prat (BCN) VY8305 2021-09-17 21:52:00
Barcelona–El Prat (BCN) - Schiphol (AMS) VY8304 2021-09-17 19:49:00
Schiphol (AMS) - Barcelona–El Prat (BCN) VY8303 2021-09-17 15:15:00
Barcelona–El Prat (BCN) - Schiphol (AMS) VY8302 2021-09-17 12:19:00
???? N/A 2021-09-17 08:56:00
???? N/A 2021-09-17 06:31:00
Dublin (DUB) - Barcelona–El Prat (BCN) VY8721 2021-09-15 16:33:00
Barcelona–El Prat (BCN) - Dublin (DUB) VY8720 2021-09-15 14:15:00
???? N/A 2021-09-15 09:34:00
Barcelona–El Prat (BCN) - Malpensa (MXP) VY6330 2021-09-15 08:21:00
???? N/A 2021-09-14 00:24:00
Barcelona–El Prat (BCN) - Menara (RAK) VY7332 2021-09-13 22:39:00
Hamburg (HAM) - Barcelona–El Prat (BCN) VY1821 2021-09-13 15:26:00
Barcelona–El Prat (BCN) - Hamburg (HAM) VY1820 2021-09-13 12:08:00
Cote D Azur (NCE) - Barcelona–El Prat (BCN) VY1516 2021-09-13 09:38:00
Barcelona–El Prat (BCN) - Cote D Azur (NCE) VY1515 2021-09-13 06:31:00
Geneve Cointrin (GVA) - Barcelona–El Prat (BCN) VY6202 2021-09-12 18:25:00
Barcelona–El Prat (BCN) - Geneve Cointrin (GVA) VY6201 2021-09-12 15:28:00
Elmas (CAG) - Barcelona–El Prat (BCN) VY6165 2021-09-12 12:40:00
Barcelona–El Prat (BCN) - Elmas (CAG) VY6164 2021-09-12 10:42:00
Time Lat Lon Altitude Heading Speed Vertical Rate
2021-07-28 14:21:54 GMT 48.722073 2.373029 0 255 46 0
2021-07-28 14:21:40 GMT 48.723095 2.378558 300 253 78 0
2021-07-28 14:21:16 GMT 48.726181 2.395381 300 255 114 -384
2021-07-28 14:21:13 GMT 48.726646 2.397838 325 255 114 -448
2021-07-28 14:21:08 GMT 48.727844 2.404386 400 255 113 -576
2021-07-28 14:21:05 GMT 48.727844 2.404386 400 255 113 -576
2021-07-28 14:20:56 GMT 48.729034 2.410724 500 255 116 -640
2021-07-28 14:20:53 GMT 48.729538 2.413330 525 255 117 -640
2021-07-28 14:20:50 GMT 48.730042 2.416218 550 255 119 -512
2021-07-28 14:20:47 GMT 48.730362 2.418189 600 255 119 -704
2021-07-28 14:20:44 GMT 48.730789 2.420389 625 255 117 -576
2021-07-28 14:20:39 GMT 48.731487 2.424075 650 255 116 -576
2021-07-28 14:20:36 GMT 48.731907 2.426388 700 255 116 -640
2021-07-28 14:20:33 GMT 48.732418 2.429135 725 254 115 -640
2021-07-28 14:20:29 GMT 48.733429 2.434528 775 255 114 -704
2021-07-28 14:20:26 GMT 48.733429 2.434528 850 254 115 -512
2021-07-28 14:20:19 GMT 48.734375 2.439615 850 255 115 -576
2021-07-28 14:20:16 GMT 48.734802 2.441993 925 255 115 -512
2021-07-28 14:20:06 GMT 48.736313 2.450022 1,000 255 114 -512
2021-07-28 14:19:58 GMT 48.737400 2.456023 1,075 255 115 -704
2021-07-28 14:19:55 GMT 48.737820 2.458335 1,100 255 115 -704
2021-07-28 14:19:49 GMT 48.738750 2.463395 1,175 255 114 -640
2021-07-28 14:19:46 GMT 48.739216 2.466069 1,200 256 114 -448
2021-07-28 14:19:41 GMT 48.739822 2.469466 1,250 255 114 -576
2021-07-28 14:19:38 GMT 48.740238 2.471924 1,275 254 114 -512
2021-07-28 14:19:35 GMT 48.740616 2.473755 1,300 254 113 -448
2021-07-28 14:19:28 GMT 48.741669 2.479318 1,400 255 115 -832
2021-07-28 14:19:25 GMT 48.742081 2.481572 1,400 255 115 -768
2021-07-28 14:19:18 GMT 48.743088 2.487065 1,475 256 114 -512
2021-07-28 14:19:15 GMT 48.743500 2.489415 1,500 256 113 -448
2021-07-28 14:19:08 GMT 48.744568 2.495414 1,550 255 115 -704
2021-07-28 14:19:04 GMT 48.744942 2.497366 1,600 255 115 -640
2021-07-28 14:19:00 GMT 48.745640 2.501124 1,625 254 115 -704
2021-07-28 14:18:57 GMT 48.746017 2.502911 1,700 255 116 -704
2021-07-28 14:18:54 GMT 48.746479 2.505389 1,700 255 116 -640
2021-07-28 14:18:48 GMT 48.747849 2.513263 1,775 256 118 -832
2021-07-28 14:18:45 GMT 48.747849 2.513263 1,825 256 120 -832
2021-07-28 14:18:37 GMT 48.748852 2.519122 1,925 255 119 -384
2021-07-28 14:18:34 GMT 48.749317 2.521796 1,950 256 116 0
2021-07-28 14:18:30 GMT 48.749874 2.524976 1,975 256 116 -128
2021-07-28 14:18:27 GMT 48.750275 2.527348 1,975 256 116 0
2021-07-28 14:18:24 GMT 48.750713 2.529674 1,975 256 116 0
2021-07-28 14:18:17 GMT 48.752064 2.537553 1,975 258 115 -64
2021-07-28 14:18:14 GMT 48.752064 2.537553 1,975 257 115 -128
2021-07-28 14:18:09 GMT 48.752808 2.542323 1,975 259 116 0
2021-07-28 14:18:06 GMT 48.752975 2.543758 1,975 259 115 -192
2021-07-28 14:18:03 GMT 48.753342 2.546152 1,975 259 116 -64
2021-07-28 14:18:00 GMT 48.753738 2.549262 1,975 268 115 64
2021-07-28 14:17:55 GMT 48.754066 2.552225 1,975 264 115 128
2021-07-28 14:17:52 GMT 48.754257 2.554603 1,975 264 115 128
2021-07-28 14:17:47 GMT 48.754486 2.559887 1,975 269 115 64
2021-07-28 14:17:44 GMT 48.754486 2.561983 1,975 271 115 -64
2021-07-28 14:17:39 GMT 48.754345 2.566392 1,975 277 116 128
2021-07-28 14:17:36 GMT 48.754253 2.567548 1,975 280 117 0
2021-07-28 14:17:33 GMT 48.753925 2.570295 1,975 283 120 0
2021-07-28 14:17:26 GMT 48.752563 2.578336 1,975 285 122 -128
2021-07-28 14:17:23 GMT 48.752563 2.578336 1,975 284 123 -64
2021-07-28 14:17:16 GMT 48.751648 2.584252 1,975 283 125 64
2021-07-28 14:17:13 GMT 48.751190 2.587280 1,975 283 123 128
2021-07-28 14:17:06 GMT 48.750294 2.593279 1,975 287 121 64
2021-07-28 14:17:03 GMT 48.749863 2.595590 1,975 289 121 64
2021-07-28 14:16:56 GMT 48.748528 2.601230 1,950 299 123 192
2021-07-28 14:16:51 GMT 48.746979 2.604816 1,950 309 128 256
2021-07-28 14:16:45 GMT 48.744507 2.608197 1,925 334 143 -64
2021-07-28 14:16:42 GMT 48.742428 2.609903 1,925 340 146 -192
2021-07-28 14:16:36 GMT 48.737724 2.611566 1,975 356 159 -256
2021-07-28 14:16:32 GMT 48.735352 2.611577 1,950 5 168 -128
2021-07-28 14:16:25 GMT 48.729950 2.609746 1,975 21 182 -128
2021-07-28 14:16:21 GMT 48.727299 2.607952 1,975 27 186 -128
2021-07-28 14:16:14 GMT 48.722031 2.602985 2,000 35 190 0
2021-07-28 14:16:10 GMT 48.718964 2.599746 2,000 35 190 0
2021-07-28 14:16:06 GMT 48.716309 2.596858 2,000 35 192 -64
2021-07-28 14:16:03 GMT 48.713379 2.593759 2,025 35 189 64
2021-07-28 14:15:55 GMT 48.707745 2.587786 2,000 34 189 0
2021-07-28 14:15:52 GMT 48.705597 2.585590 2,000 34 191 128
2021-07-28 14:15:48 GMT 48.702950 2.582799 1,975 35 193 64
2021-07-28 14:15:45 GMT 48.699921 2.579674 1,975 34 193 64
2021-07-28 14:15:41 GMT 48.697998 2.577632 1,975 35 193 64
2021-07-28 14:15:37 GMT 48.695160 2.574604 1,975 35 193 64
2021-07-28 14:15:33 GMT 48.691452 2.570512 1,975 36 194 -128
2021-07-28 14:15:29 GMT 48.688934 2.567702 2,000 36 195 -64
2021-07-28 14:15:24 GMT 48.685410 2.563829 2,000 36 196 0
2021-07-28 14:15:21 GMT 48.683075 2.561293 2,000 36 196 64
2021-07-28 14:15:18 GMT 48.680840 2.558803 1,975 36 202 256
2021-07-28 14:15:14 GMT 48.677032 2.554603 1,975 36 203 192
2021-07-28 14:15:11 GMT 48.676254 2.553687 1,950 36 206 320
2021-07-28 14:15:08 GMT 48.673325 2.550448 1,950 36 219 64
2021-07-28 14:15:03 GMT 48.669342 2.546011 1,950 36 215 64
2021-07-28 14:15:00 GMT 48.666321 2.542701 1,925 36 219 64
2021-07-28 14:14:55 GMT 48.662403 2.538420 1,950 35 225 64
2021-07-28 14:14:52 GMT 48.660355 2.536179 1,950 35 228 128
2021-07-28 14:14:42 GMT 48.650906 2.526133 1,975 34 229 128
2021-07-28 14:14:39 GMT 48.649181 2.524326 1,975 34 229 192
2021-07-28 14:14:32 GMT 48.640640 2.515165 1,925 35 235 64
2021-07-28 14:14:24 GMT 48.633453 2.507629 1,925 34 244 -128
2021-07-28 14:14:21 GMT 48.633453 2.507629 1,925 34 246 -128
2021-07-28 14:14:17 GMT 48.629864 2.503943 2,100 34 251 -576
2021-07-28 14:14:13 GMT 48.625488 2.499390 2,000 34 252 -704
2021-07-28 14:14:10 GMT 48.623161 2.496932 2,025 34 253 -832
2021-07-28 14:14:06 GMT 48.618713 2.492277 2,100 35 257 -704
2021-07-28 14:14:01 GMT 48.613991 2.487175 2,150 35 260 -512
2021-07-28 14:13:54 GMT 48.606995 2.479600 2,250 36 263 -1088
2021-07-28 14:13:51 GMT 48.604065 2.476361 2,275 35 264 -1024
2021-07-28 14:13:46 GMT 48.598812 2.470623 2,375 35 266 -1024
2021-07-28 14:13:43 GMT 48.595276 2.466712 2,450 36 267 -1216
2021-07-28 14:13:40 GMT 48.593182 2.464479 2,475 35 267 -1280
2021-07-28 14:13:33 GMT 48.585480 2.456078 2,625 36 272 -768
2021-07-28 14:13:30 GMT 48.583496 2.453854 2,650 36 273 -960
2021-07-28 14:13:27 GMT 48.579823 2.449807 2,700 36 275 -384
2021-07-28 14:13:24 GMT 48.577240 2.446923 2,700 36 279 -448
2021-07-28 14:13:21 GMT 48.573578 2.442838 2,725 36 280 -512
2021-07-28 14:13:14 GMT 48.566879 2.435351 2,850 36 282 -1152
2021-07-28 14:13:11 GMT 48.562683 2.430796 2,900 36 280 -896
2021-07-28 14:13:03 GMT 48.555588 2.422978 2,975 36 280 -448
2021-07-28 14:13:00 GMT 48.552017 2.418964 2,975 37 281 128
2021-07-28 14:12:56 GMT 48.547001 2.413234 2,975 36 280 64
2021-07-28 14:12:53 GMT 48.540985 2.406640 2,950 35 281 0
2021-07-28 14:12:49 GMT 48.540985 2.406640 2,950 34 280 64
2021-07-28 14:12:43 GMT 48.533688 2.399356 2,975 30 282 -192
2021-07-28 14:12:40 GMT 48.530148 2.396176 2,975 28 281 -64
2021-07-28 14:12:35 GMT 48.524002 2.391357 2,950 23 279 -256
2021-07-28 14:12:31 GMT 48.520660 2.389033 2,950 23 279 -256
2021-07-28 14:12:28 GMT 48.517044 2.386639 2,950 23 279 -256
2021-07-28 14:12:25 GMT 48.512787 2.383816 2,950 24 279 64
2021-07-28 14:12:22 GMT 48.508530 2.380864 2,950 25 279 -256
2021-07-28 14:12:19 GMT 48.506607 2.379456 2,950 25 279 -64
2021-07-28 14:12:16 GMT 48.502914 2.376661 2,950 27 280 0
2021-07-28 14:12:11 GMT 48.497040 2.371990 2,925 30 283 -64
2021-07-28 14:12:08 GMT 48.493931 2.369361 2,925 30 283 -64
2021-07-28 14:12:01 GMT 48.485687 2.361638 2,950 32 284 -256
2021-07-28 14:11:56 GMT 48.480152 2.356206 2,975 33 283 -64
2021-07-28 14:11:53 GMT 48.476349 2.352342 2,975 36 279 -192
2021-07-28 14:11:49 GMT 48.471493 2.347099 3,000 36 279 -192
2021-07-28 14:11:41 GMT 48.464081 2.338186 3,000 40 278 -128
2021-07-28 14:11:37 GMT 48.460693 2.333820 3,000 40 279 -192
2021-07-28 14:11:30 GMT 48.454330 2.325158 3,025 44 277 0
2021-07-28 14:11:27 GMT 48.451477 2.320934 3,000 48 278 -256
2021-07-28 14:11:21 GMT 48.445377 2.310960 3,025 47 280 -320
2021-07-28 14:11:14 GMT 48.439140 2.300552 3,050 47 277 -128
2021-07-28 14:11:10 GMT 48.436661 2.296424 3,050 47 277 -64
2021-07-28 14:11:00 GMT 48.428013 2.282048 3,025 49 275 448
2021-07-28 14:10:49 GMT 48.419037 2.266001 2,975 51 271 320
2021-07-28 14:10:40 GMT 48.411953 2.251547 2,925 55 271 -64
2021-07-28 14:10:30 GMT 48.404922 2.236007 2,925 55 270 -64
2021-07-28 14:10:20 GMT 48.397614 2.220106 2,950 55 269 -320
2021-07-28 14:10:09 GMT 48.390259 2.203915 3,025 56 272 -512
2021-07-28 14:09:59 GMT 48.383286 2.188322 3,075 56 273 -192
2021-07-28 14:09:49 GMT 48.376144 2.172546 3,125 55 271 192
2021-07-28 14:09:38 GMT 48.368565 2.156501 3,100 54 272 128
2021-07-28 14:09:29 GMT 48.361351 2.141250 3,075 54 273 192
2021-07-28 14:09:18 GMT 48.354309 2.125009 3,075 60 272 64
2021-07-28 14:09:08 GMT 48.348221 2.108248 3,050 63 271 64
2021-07-28 14:08:58 GMT 48.342312 2.090727 3,025 63 271 64
2021-07-28 14:08:48 GMT 48.336445 2.073742 3,025 61 270 256
2021-07-28 14:08:37 GMT 48.329865 2.056767 2,975 59 271 128
2021-07-28 14:08:27 GMT 48.323318 2.040710 2,975 57 274 0
2021-07-28 14:08:17 GMT 48.316406 2.024865 2,975 56 273 64
2021-07-28 14:08:08 GMT 48.309444 2.008980 2,975 56 272 0
2021-07-28 14:07:57 GMT 48.302170 1.992540 2,975 56 269 128
2021-07-28 14:07:47 GMT 48.295341 1.977322 2,975 56 268 -64
2021-07-28 14:07:37 GMT 48.288208 1.961271 2,975 56 265 192
2021-07-28 14:07:27 GMT 48.281387 1.945777 2,975 56 266 256
2021-07-28 14:07:23 GMT 48.279053 1.940355 2,975 56 268 -256
2021-07-28 14:07:16 GMT 48.274254 1.929546 2,975 56 272 128
2021-07-28 14:07:12 GMT 48.271362 1.923030 2,975 56 274 0
2021-07-28 14:07:07 GMT 48.267223 1.913573 2,975 56 275 64
2021-07-28 14:07:02 GMT 48.264709 1.907790 2,975 56 276 -64
2021-07-28 14:06:56 GMT 48.260052 1.897238 2,975 56 275 64
2021-07-28 14:06:51 GMT 48.257126 1.890564 2,975 56 274 -256
2021-07-28 14:06:43 GMT 48.251255 1.877289 2,975 56 274 -64
2021-07-28 14:06:36 GMT 48.245956 1.865211 2,975 56 273 64
2021-07-28 14:06:33 GMT 48.244366 1.861460 2,975 56 273 64
2021-07-28 14:06:26 GMT 48.239136 1.849436 2,975 56 272 -128
2021-07-28 14:06:22 GMT 48.236778 1.844113 2,975 56 272 -64
2021-07-28 14:06:15 GMT 48.231857 1.832886 2,975 56 272 0
2021-07-28 14:06:12 GMT 48.229797 1.828167 2,975 56 272 0
2021-07-28 14:06:06 GMT 48.224808 1.816970 2,975 56 273 -128
2021-07-28 14:05:54 GMT 48.217319 1.799662 2,975 57 273 128
2021-07-28 14:05:51 GMT 48.215130 1.794530 2,975 57 274 0
2021-07-28 14:05:45 GMT 48.210896 1.784700 2,975 56 275 0
2021-07-28 14:05:42 GMT 48.208706 1.779713 2,975 56 275 128
2021-07-28 14:05:35 GMT 48.203842 1.768799 2,975 55 275 0
2021-07-28 14:05:31 GMT 48.200932 1.762438 2,975 55 274 64
2021-07-28 14:05:25 GMT 48.196369 1.753187 2,975 51 273 0
2021-07-28 14:05:17 GMT 48.190109 1.742319 2,975 50 273 -64
2021-07-28 14:05:13 GMT 48.186356 1.736192 2,975 47 274 0
2021-07-28 14:05:05 GMT 48.178986 1.724290 2,975 46 273 0
2021-07-28 14:05:00 GMT 48.175186 1.718276 2,975 46 273 -64
2021-07-28 14:04:52 GMT 48.168301 1.707434 2,975 46 274 64
2021-07-28 14:04:42 GMT 48.159805 1.694023 2,975 46 275 0
2021-07-28 14:04:33 GMT 48.149048 1.676857 2,975 46 273 192
2021-07-28 14:04:22 GMT 48.142323 1.666119 3,025 46 273 -384
2021-07-28 14:04:12 GMT 48.133617 1.652316 3,100 46 276 -1024
2021-07-28 14:04:01 GMT 48.124073 1.637104 3,350 46 278 -1664
2021-07-28 14:03:51 GMT 48.115276 1.623089 3,700 47 275 -2176
2021-07-28 14:03:41 GMT 48.106663 1.609075 4,000 47 274 -1472
2021-07-28 14:03:33 GMT 48.099426 1.597481 4,225 47 278 -960
2021-07-28 14:03:23 GMT 48.091141 1.584091 4,225 47 278 -960
2021-07-28 14:03:21 GMT 48.089310 1.581276 4,425 46 279 -1728
2021-07-28 14:03:12 GMT 48.080875 1.567876 4,675 46 282 -1344
2021-07-28 14:03:03 GMT 48.072586 1.554636 4,875 46 282 -1792
2021-07-28 14:02:55 GMT 48.066147 1.544403 5,150 46 278 -2624
2021-07-28 14:02:51 GMT 48.062813 1.539072 5,300 46 277 -2688
2021-07-28 14:02:45 GMT 48.057785 1.531114 5,575 46 273 -2496
2021-07-28 14:02:41 GMT 48.053360 1.524142 5,750 46 270 -1984
2021-07-28 14:02:35 GMT 48.049255 1.517487 5,975 46 271 -1024
2021-07-28 14:02:30 GMT 48.044888 1.510620 5,975 46 272 -896
2021-07-28 14:02:26 GMT 48.040100 1.503136 6,025 46 275 -640
2021-07-28 14:02:21 GMT 48.036758 1.497849 6,050 46 279 -576
2021-07-28 14:02:14 GMT 48.030502 1.488436 6,200 43 282 -960
2021-07-28 14:02:11 GMT 48.025452 1.481918 6,250 35 281 -1536
2021-07-28 14:02:09 GMT 48.025452 1.481918 6,250 35 281 -1536
2021-07-28 14:02:07 GMT 48.023300 1.479584 6,300 32 280 -1600
2021-07-28 14:02:05 GMT 48.016308 1.473717 6,400 29 279 -1728
2021-07-28 14:02:01 GMT 48.008347 1.469281 6,625 16 273 -1408
2021-07-28 14:01:54 GMT 48.008347 1.469281 6,825 16 273 -1408
2021-07-28 14:01:50 GMT 48.002701 1.466743 6,825 16 273 -960
2021-07-28 14:01:45 GMT 47.996567 1.464069 6,950 16 274 -704
2021-07-28 14:01:42 GMT 47.990189 1.461322 6,950 16 275 -192
2021-07-28 14:01:39 GMT 47.990189 1.461322 6,950 16 275 -192
2021-07-28 14:01:33 GMT 47.982513 1.457954 6,975 16 275 0
2021-07-28 14:01:30 GMT 47.978786 1.456322 6,975 16 275 0
2021-07-28 14:01:24 GMT 47.970360 1.452660 6,975 16 277 0
2021-07-28 14:01:20 GMT 47.966774 1.451111 6,975 16 277 0
2021-07-28 14:01:14 GMT 47.959278 1.447801 6,975 16 279 64
2021-07-28 14:01:12 GMT 47.956833 1.446693 6,975 16 280 0
2021-07-28 14:01:10 GMT 47.954437 1.445688 6,975 16 282 0
2021-07-28 14:01:08 GMT 47.951843 1.444565 6,975 16 282 -64
2021-07-28 14:01:04 GMT 47.946758 1.442308 6,975 16 283 0
2021-07-28 14:01:01 GMT 47.941040 1.439827 6,975 16 283 0
2021-07-28 14:00:58 GMT 47.939354 1.439068 6,975 16 283 -64
2021-07-28 14:00:57 GMT 47.938049 1.438505 6,975 16 283 0
2021-07-28 14:00:54 GMT 47.933762 1.436668 6,975 16 283 0
2021-07-28 14:00:50 GMT 47.927902 1.434128 6,975 16 283 0
2021-07-28 14:00:47 GMT 47.925430 1.433029 6,975 16 283 0
2021-07-28 14:00:46 GMT 47.923965 1.432411 6,975 16 283 0
2021-07-28 14:00:44 GMT 47.921104 1.431181 6,975 16 283 0
2021-07-28 14:00:40 GMT 47.908211 1.425617 6,975 16 283 0
2021-07-28 14:00:33 GMT 47.908211 1.425617 6,975 16 283 0
2021-07-28 14:00:29 GMT 47.902672 1.423222 6,975 16 283 0
2021-07-28 14:00:23 GMT 47.895172 1.419983 6,975 16 283 64
2021-07-28 14:00:20 GMT 47.890686 1.418060 6,975 16 283 128
2021-07-28 14:00:14 GMT 47.882889 1.414631 6,950 16 284 192
2021-07-28 14:00:10 GMT 47.877274 1.412086 7,000 16 284 -64
2021-07-28 14:00:02 GMT 47.868969 1.408504 7,000 16 281 192
2021-07-28 13:59:57 GMT 47.862122 1.405563 7,000 16 281 0
2021-07-28 13:59:54 GMT 47.855419 1.402588 6,975 16 278 320
2021-07-28 13:59:52 GMT 47.853333 1.401718 6,975 16 278 64
2021-07-28 13:59:50 GMT 47.853333 1.401718 6,975 16 278 64
2021-07-28 13:59:47 GMT 47.844437 1.397869 6,975 16 278 192
2021-07-28 13:59:43 GMT 47.844437 1.397869 6,975 16 282 64
2021-07-28 13:59:39 GMT 47.839417 1.395676 6,975 16 282 64
2021-07-28 13:59:32 GMT 47.831680 1.392380 6,975 16 282 0
2021-07-28 13:59:31 GMT 47.824978 1.389489 6,975 16 282 64
2021-07-28 13:59:27 GMT 47.824978 1.389489 6,975 16 283 -64
2021-07-28 13:59:22 GMT 47.815899 1.385545 6,975 16 282 0
2021-07-28 13:59:19 GMT 47.812408 1.384003 6,975 16 282 0
2021-07-28 13:59:17 GMT 47.812408 1.384003 6,975 16 282 0
2021-07-28 13:59:12 GMT 47.806229 1.381325 6,975 16 282 0
2021-07-28 13:59:09 GMT 47.801281 1.379207 6,975 16 282 -64
2021-07-28 13:59:03 GMT 47.792542 1.375420 6,975 16 283 64
2021-07-28 13:58:58 GMT 47.788742 1.373772 6,975 16 284 64
2021-07-28 13:58:54 GMT 47.783077 1.371390 6,975 16 284 64
2021-07-28 13:58:51 GMT 47.779819 1.369981 6,975 16 284 64
2021-07-28 13:58:48 GMT 47.775539 1.368150 6,975 16 284 64
2021-07-28 13:58:45 GMT 47.770603 1.366037 6,975 15 283 0
2021-07-28 13:58:41 GMT 47.766678 1.364365 6,975 16 285 64
2021-07-28 13:58:37 GMT 47.761898 1.362305 6,975 16 286 64
2021-07-28 13:58:34 GMT 47.758595 1.360896 6,975 16 287 -64
2021-07-28 13:58:31 GMT 47.753769 1.358803 6,975 16 286 64
2021-07-28 13:58:28 GMT 47.749969 1.357224 6,975 16 286 64
2021-07-28 13:58:24 GMT 47.745464 1.355262 7,000 16 289 -128
2021-07-28 13:58:21 GMT 47.741135 1.353361 7,000 16 289 -128
2021-07-28 13:58:15 GMT 47.733490 1.350082 7,000 16 291 -64
2021-07-28 13:58:11 GMT 47.728180 1.347816 7,000 16 293 0
2021-07-28 13:58:07 GMT 47.723511 1.345757 7,000 16 295 64
2021-07-28 13:58:04 GMT 47.719345 1.343971 7,000 16 299 0
2021-07-28 13:58:01 GMT 47.714218 1.341774 6,975 16 307 64
2021-07-28 13:57:58 GMT 47.709503 1.339645 6,975 16 307 64
2021-07-28 13:57:53 GMT 47.704376 1.337448 6,975 16 311 -64
2021-07-28 13:57:50 GMT 47.700897 1.335938 6,975 16 317 0
2021-07-28 13:57:47 GMT 47.696350 1.333923 6,975 16 321 0
2021-07-28 13:57:44 GMT 47.691372 1.331740 6,975 16 327 -64
2021-07-28 13:57:39 GMT 47.684555 1.328796 6,975 16 335 -384
2021-07-28 13:57:36 GMT 47.680386 1.326951 7,000 16 335 -384
2021-07-28 13:57:33 GMT 47.676086 1.325089 7,025 16 338 -768
2021-07-28 13:57:30 GMT 47.670704 1.322796 7,150 16 341 -1408
2021-07-28 13:57:26 GMT 47.665375 1.320488 7,150 16 343 -2048
2021-07-28 13:57:23 GMT 47.660568 1.318428 7,275 16 343 -2432
2021-07-28 13:57:17 GMT 47.650826 1.314275 7,475 16 344 -2432
2021-07-28 13:57:14 GMT 47.645470 1.311951 7,850 16 344 -2560
2021-07-28 13:57:09 GMT 47.639606 1.309415 7,850 16 345 -2432
2021-07-28 13:57:06 GMT 47.634296 1.307162 7,950 16 350 -1280
2021-07-28 13:57:03 GMT 47.629669 1.305176 8,025 16 348 -1344
2021-07-28 13:56:57 GMT 47.621017 1.301468 8,150 16 353 -1344
2021-07-28 13:56:55 GMT 47.616421 1.299485 8,200 16 356 -1280
2021-07-28 13:56:52 GMT 47.613255 1.298147 8,275 16 361 -1536
2021-07-28 13:56:47 GMT 47.604366 1.294274 8,375 16 361 -1536
2021-07-28 13:56:43 GMT 47.597855 1.291512 8,600 16 366 -1984
2021-07-28 13:56:39 GMT 47.591583 1.288834 8,600 16 366 -1984
2021-07-28 13:56:36 GMT 47.587692 1.287186 8,800 16 367 -3072
2021-07-28 13:56:33 GMT 47.583481 1.285400 8,800 16 367 -3072
2021-07-28 13:56:32 GMT 47.580902 1.284274 8,875 16 367 -3072
2021-07-28 13:56:26 GMT 47.571259 1.280182 9,275 16 367 -2624
2021-07-28 13:56:22 GMT 47.565262 1.277573 9,300 16 371 -1856
2021-07-28 13:56:20 GMT 47.561050 1.275787 9,425 16 371 -1856
2021-07-28 13:56:18 GMT 47.557571 1.274345 9,500 16 371 -1856
2021-07-28 13:56:15 GMT 47.547943 1.270189 9,675 16 371 -1856
2021-07-28 13:56:12 GMT 47.547943 1.270189 9,675 16 375 -1216
2021-07-28 13:56:09 GMT 47.542419 1.267822 9,750 16 377 -1152
2021-07-28 13:56:08 GMT 47.540543 1.266998 9,775 16 380 -1152
2021-07-28 13:56:07 GMT 47.537098 1.265540 9,825 16 381 -1088
2021-07-28 13:56:04 GMT 47.534409 1.264389 9,850 16 383 -1088
2021-07-28 13:55:59 GMT 47.518616 1.257582 10,025 16 387 -1216
2021-07-28 13:55:56 GMT 47.518616 1.257582 10,050 16 390 -1536
2021-07-28 13:55:48 GMT 47.505844 1.252029 10,325 16 396 -2752
2021-07-28 13:55:45 GMT 47.501129 1.250038 10,525 16 396 -2752
2021-07-28 13:55:42 GMT 47.494904 1.247360 10,600 16 398 -2816
2021-07-28 13:55:40 GMT 47.491699 1.245987 10,675 16 398 -2752
2021-07-28 13:55:37 GMT 47.485565 1.243309 10,950 16 400 -2752
2021-07-28 13:55:34 GMT 47.480953 1.241314 10,950 16 400 -2688
2021-07-28 13:55:31 GMT 47.472198 1.237541 11,175 16 402 -2496
2021-07-28 13:55:28 GMT 47.472198 1.237541 11,175 16 404 -2368
2021-07-28 13:55:26 GMT 47.467873 1.235680 11,275 16 405 -2176
2021-07-28 13:55:25 GMT 47.456360 1.230743 11,350 16 407 -1984
2021-07-28 13:55:21 GMT 47.451553 1.228615 11,525 16 410 -1856
2021-07-28 13:55:17 GMT 47.451553 1.228615 11,550 16 413 -2240
2021-07-28 13:55:15 GMT 47.448715 1.227448 11,600 16 413 -2240
2021-07-28 13:55:14 GMT 47.444878 1.225750 11,700 16 413 -2496
2021-07-28 13:55:12 GMT 47.440842 1.224014 11,775 16 414 -2880
2021-07-28 13:55:11 GMT 47.440842 1.224014 11,800 16 415 -2944
2021-07-28 13:55:09 GMT 47.436916 1.222299 11,875 16 415 -3008
2021-07-28 13:55:08 GMT 47.435055 1.221525 11,950 16 415 -3072
2021-07-28 13:55:07 GMT 47.433151 1.220718 12,000 16 416 -3072
2021-07-28 13:55:05 GMT 47.429581 1.219139 12,100 16 416 -3072
2021-07-28 13:55:03 GMT 47.423538 1.216530 12,275 16 418 -3008
2021-07-28 13:54:58 GMT 47.415874 1.213215 12,475 16 420 -2880
2021-07-28 13:54:56 GMT 47.412243 1.211665 12,575 16 420 -2944
2021-07-28 13:54:55 GMT 47.410400 1.210831 12,625 16 421 -3072
2021-07-28 13:54:54 GMT 47.406796 1.209271 12,725 16 421 -3328
2021-07-28 13:54:52 GMT 47.404861 1.208427 12,800 16 421 -3584
2021-07-28 13:54:48 GMT 47.397301 1.205116 13,050 16 419 -4352
2021-07-28 13:54:46 GMT 47.393669 1.203566 13,200 16 419 -4352
2021-07-28 13:54:45 GMT 47.391853 1.202721 13,275 16 419 -4224
2021-07-28 13:54:43 GMT 47.388016 1.201080 13,425 16 419 -3648
2021-07-28 13:54:38 GMT 47.374954 1.195397 13,750 16 421 -3008
2021-07-28 13:54:36 GMT 47.374954 1.195397 13,800 16 421 -3072
2021-07-28 13:54:34 GMT 47.371216 1.193733 13,875 16 422 -3136
2021-07-28 13:54:32 GMT 47.364761 1.190918 14,075 16 423 -3328
2021-07-28 13:54:30 GMT 47.361145 1.189407 14,200 16 424 -3456
2021-07-28 13:54:27 GMT 47.357483 1.187759 14,300 16 424 -3520
2021-07-28 13:54:25 GMT 47.353455 1.186043 14,450 16 425 -3840
2021-07-28 13:54:24 GMT 47.350479 1.184738 14,550 16 425 -4160
2021-07-28 13:54:21 GMT 47.346451 1.183022 14,700 16 426 -4352
2021-07-28 13:54:19 GMT 47.342182 1.181171 14,850 16 426 -4352
2021-07-28 13:54:18 GMT 47.338806 1.179726 14,975 16 428 -4032
2021-07-28 13:54:15 GMT 47.335434 1.178213 15,100 16 429 -3712
2021-07-28 13:54:12 GMT 47.328506 1.175194 15,300 16 434 -3136
2021-07-28 13:54:10 GMT 47.325333 1.173776 15,375 17 436 -3008
2021-07-28 13:54:09 GMT 47.322536 1.172509 15,450 17 437 -2944
2021-07-28 13:54:06 GMT 47.318489 1.170607 15,550 18 439 -2816
2021-07-28 13:54:05 GMT 47.316673 1.169692 15,600 19 439 -2816
2021-07-28 13:54:04 GMT 47.313080 1.167709 15,700 21 442 -2688
2021-07-28 13:54:02 GMT 47.311203 1.166611 15,725 22 443 -2688
2021-07-28 13:54:00 GMT 47.307770 1.164482 15,825 24 445 -2752
2021-07-28 13:53:58 GMT 47.303638 1.161663 15,925 26 447 -2816
2021-07-28 13:53:56 GMT 47.299911 1.158846 16,025 28 448 -2944
2021-07-28 13:53:55 GMT 47.298050 1.157297 16,075 30 450 -3200
2021-07-28 13:53:53 GMT 47.294449 1.154182 16,200 31 451 -3328
2021-07-28 13:53:52 GMT 47.292652 1.152579 16,250 32 452 -3520
2021-07-28 13:53:51 GMT 47.289207 1.149198 16,375 35 453 -3712
2021-07-28 13:53:49 GMT 47.287308 1.147247 16,450 36 453 -3776
2021-07-28 13:53:48 GMT 47.284653 1.144295 16,550 38 455 -3904
2021-07-28 13:53:46 GMT 47.283051 1.142372 16,600 39 454 -3904
2021-07-28 13:53:45 GMT 47.281311 1.140381 16,675 41 455 -3968
2021-07-28 13:53:43 GMT 47.277706 1.135747 16,825 42 456 -3904
2021-07-28 13:53:42 GMT 47.276093 1.133583 16,900 44 457 -3904
2021-07-28 13:53:40 GMT 47.273193 1.129409 17,025 46 458 -3840
2021-07-28 13:53:39 GMT 47.271606 1.127129 17,100 46 458 -3840
2021-07-28 13:53:37 GMT 47.268585 1.122322 17,225 48 458 -3776
2021-07-28 13:53:36 GMT 47.266983 1.119644 17,300 49 459 -3776
2021-07-28 13:53:35 GMT 47.265656 1.117378 17,350 50 460 -3712
2021-07-28 13:53:34 GMT 47.261765 1.110168 17,525 52 461 -3712
2021-07-28 13:53:32 GMT 47.261765 1.110168 17,550 53 461 -3712
2021-07-28 13:53:30 GMT 47.259521 1.105499 17,650 56 462 -3904
2021-07-28 13:53:29 GMT 47.258156 1.102717 17,725 57 463 -3968
2021-07-28 13:53:27 GMT 47.255493 1.096367 17,900 59 463 -4288
2021-07-28 13:53:26 GMT 47.254852 1.094830 17,925 61 463 -4416
2021-07-28 13:53:24 GMT 47.252617 1.088844 18,100 63 463 -4736
2021-07-28 13:53:22 GMT 47.250778 1.083389 18,250 66 464 -4736
2021-07-28 13:53:21 GMT 47.249863 1.080574 18,325 66 464 -4736
2021-07-28 13:53:19 GMT 47.247940 1.073914 18,500 68 464 -4544
2021-07-28 13:53:18 GMT 47.247169 1.070885 18,575 69 464 -4416
2021-07-28 13:53:17 GMT 47.245834 1.065468 18,700 72 464 -4224
2021-07-28 13:53:15 GMT 47.245102 1.062378 18,775 73 465 -3968
2021-07-28 13:53:13 GMT 47.243816 1.056026 18,900 75 465 -3712
2021-07-28 13:53:11 GMT 47.242794 1.050180 19,000 77 467 -3456
2021-07-28 13:53:09 GMT 47.241806 1.043564 19,125 79 467 -3328
2021-07-28 13:53:08 GMT 47.240845 1.035393 19,250 81 467 -3136
2021-07-28 13:53:05 GMT 47.240559 1.032151 19,325 82 468 -3072
2021-07-28 13:53:04 GMT 47.240295 1.028801 19,350 83 469 -3008
2021-07-28 13:53:03 GMT 47.240021 1.025162 19,425 84 469 -2880
2021-07-28 13:53:02 GMT 47.239628 1.018419 19,500 86 469 -2816
2021-07-28 13:53:00 GMT 47.239491 1.015179 19,550 87 470 -2688
2021-07-28 13:52:59 GMT 47.239349 1.008700 19,650 89 471 -2496
2021-07-28 13:52:57 GMT 47.239288 1.005730 19,675 89 471 -2368
2021-07-28 13:52:56 GMT 47.239304 0.998699 19,750 91 471 -2112
2021-07-28 13:52:54 GMT 47.239380 0.995293 19,800 92 472 -1920
2021-07-28 13:52:53 GMT 47.239491 0.991727 19,825 93 472 -1792
2021-07-28 13:52:51 GMT 47.239746 0.985336 19,875 94 472 -1472
2021-07-28 13:52:50 GMT 47.239906 0.982079 19,900 95 473 -1280
2021-07-28 13:52:49 GMT 47.240139 0.978840 19,900 96 473 -1152
2021-07-28 13:52:48 GMT 47.240604 0.972713 19,950 97 474 -832
2021-07-28 13:52:46 GMT 47.241165 0.966591 19,975 99 474 -576
2021-07-28 13:52:44 GMT 47.241535 0.963346 19,975 99 474 -512
2021-07-28 13:52:43 GMT 47.241909 0.959966 19,975 101 475 -384
2021-07-28 13:52:42 GMT 47.242401 0.956497 19,975 101 475 -384
2021-07-28 13:52:40 GMT 47.243271 0.950386 20,000 102 475 -256
2021-07-28 13:52:39 GMT 47.243725 0.947289 20,000 103 475 -192
2021-07-28 13:52:36 GMT 47.245056 0.939537 20,000 105 475 -64
2021-07-28 13:52:35 GMT 47.245331 0.938164 20,000 106 475 -64
2021-07-28 13:52:34 GMT 47.246658 0.931655 20,000 108 475 -64
2021-07-28 13:52:32 GMT 47.247311 0.928556 20,000 109 475 -64
2021-07-28 13:52:31 GMT 47.248077 0.925392 20,000 109 475 -64
2021-07-28 13:52:29 GMT 47.249542 0.919260 20,000 110 475 0
2021-07-28 13:52:28 GMT 47.250240 0.916584 20,000 111 474 0
2021-07-28 13:52:27 GMT 47.251099 0.913445 20,000 112 474 0
2021-07-28 13:52:26 GMT 47.252804 0.907569 20,000 114 474 0
2021-07-28 13:52:23 GMT 47.254944 0.900597 20,000 114 473 0
2021-07-28 13:52:22 GMT 47.255966 0.897569 20,000 117 473 0
2021-07-28 13:52:20 GMT 47.257877 0.892076 20,000 118 472 0
2021-07-28 13:52:19 GMT 47.258854 0.889470 20,000 119 472 0
2021-07-28 13:52:18 GMT 47.259926 0.886512 20,000 120 471 0
2021-07-28 13:52:16 GMT 47.262299 0.880596 20,000 122 471 0
2021-07-28 13:52:15 GMT 47.263458 0.877808 20,000 122 471 0
2021-07-28 13:52:13 GMT 47.265930 0.872246 20,000 124 470 0
2021-07-28 13:52:12 GMT 47.268402 0.866959 20,000 125 469 0
2021-07-28 13:52:10 GMT 47.269466 0.864751 20,000 126 469 0
2021-07-28 13:52:07 GMT 47.273518 0.856934 20,000 129 468 0
2021-07-28 13:52:04 GMT 47.277786 0.849380 19,975 131 467 0
2021-07-28 13:52:02 GMT 47.282269 0.842144 19,975 133 466 0
2021-07-28 13:52:01 GMT 47.282269 0.842144 20,000 134 466 0
2021-07-28 13:51:58 GMT 47.286972 0.835102 19,975 137 464 64
2021-07-28 13:51:55 GMT 47.290558 0.830172 19,975 137 464 64
2021-07-28 13:51:53 GMT 47.295181 0.824249 19,975 139 462 64
2021-07-28 13:51:52 GMT 47.296875 0.822189 19,975 141 461 64
2021-07-28 13:51:50 GMT 47.298752 0.819992 19,975 141 460 64
2021-07-28 13:51:48 GMT 47.303123 0.815101 19,975 144 459 128
2021-07-28 13:51:46 GMT 47.307358 0.810722 19,975 146 459 128
2021-07-28 13:51:44 GMT 47.309410 0.808692 19,975 146 458 128
2021-07-28 13:51:41 GMT 47.316673 0.802143 19,975 150 456 0
2021-07-28 13:51:39 GMT 47.318672 0.800453 19,975 150 456 0
2021-07-28 13:51:38 GMT 47.322399 0.797495 19,975 152 455 -64
2021-07-28 13:51:36 GMT 47.324249 0.796097 19,975 153 455 -64
2021-07-28 13:51:35 GMT 47.325890 0.794959 19,975 155 454 -128
2021-07-28 13:51:34 GMT 47.333405 0.789986 20,000 156 454 -256
2021-07-28 13:51:32 GMT 47.333405 0.789986 20,000 158 452 -384
2021-07-28 13:51:30 GMT 47.337341 0.787651 20,025 160 452 -576
2021-07-28 13:51:29 GMT 47.338440 0.787033 20,025 160 451 -640
2021-07-28 13:51:27 GMT 47.342606 0.784836 20,050 162 450 -768
2021-07-28 13:51:25 GMT 47.344528 0.783943 20,075 163 449 -896
2021-07-28 13:51:24 GMT 47.347488 0.782565 20,100 164 449 -960
2021-07-28 13:51:22 GMT 47.351257 0.780991 20,125 165 448 -1088
2021-07-28 13:51:21 GMT 47.353180 0.780235 20,150 165 448 -1152
2021-07-28 13:51:20 GMT 47.355103 0.779549 20,175 166 447 -1216
2021-07-28 13:51:18 GMT 47.359039 0.778175 20,225 167 447 -1344
2021-07-28 13:51:17 GMT 47.361221 0.777424 20,250 167 446 -1472
2021-07-28 13:51:15 GMT 47.365448 0.776115 20,300 168 446 -1600
2021-07-28 13:51:13 GMT 47.369568 0.774879 20,350 168 446 -1792
2021-07-28 13:51:12 GMT 47.371445 0.774261 20,400 168 446 -1856
2021-07-28 13:51:10 GMT 47.375153 0.773163 20,450 168 446 -1920
2021-07-28 13:51:09 GMT 47.377235 0.772494 20,500 168 446 -2112
2021-07-28 13:51:07 GMT 47.383026 0.770760 20,600 168 446 -2240
2021-07-28 13:51:05 GMT 47.385178 0.770073 20,625 168 446 -2368
2021-07-28 13:51:04 GMT 47.387245 0.769466 20,675 168 447 -2560
2021-07-28 13:51:03 GMT 47.389297 0.768768 20,725 168 447 -2624
2021-07-28 13:50:59 GMT 47.397488 0.766296 20,900 168 448 -3136
2021-07-28 13:50:58 GMT 47.399689 0.765610 20,975 168 448 -3264
2021-07-28 13:50:56 GMT 47.403770 0.764324 21,075 168 448 -3904
2021-07-28 13:50:55 GMT 47.406147 0.763620 21,150 168 448 -3904
2021-07-28 13:50:54 GMT 47.408203 0.763000 21,225 168 448 -3904
2021-07-28 13:50:52 GMT 47.412663 0.761578 21,350 168 448 -4032
2021-07-28 13:50:51 GMT 47.414566 0.761009 21,425 168 448 -4032
2021-07-28 13:50:49 GMT 47.418640 0.759773 21,550 168 448 -4288
2021-07-28 13:50:48 GMT 47.420761 0.759113 21,650 168 448 -4288
2021-07-28 13:50:44 GMT 47.427372 0.757071 21,875 168 447 -4608
2021-07-28 13:50:42 GMT 47.431549 0.755791 22,050 168 447 -4544
2021-07-28 13:50:41 GMT 47.433746 0.755104 22,125 168 446 -4544
2021-07-28 13:50:39 GMT 47.437710 0.753902 22,275 168 446 -4544
2021-07-28 13:50:38 GMT 47.439754 0.753268 22,350 168 446 -4544
2021-07-28 13:50:36 GMT 47.443481 0.752141 22,500 168 445 -4736
2021-07-28 13:50:35 GMT 47.447708 0.750847 22,675 168 444 -4928
2021-07-28 13:50:32 GMT 47.451767 0.749606 22,825 168 443 -5056
2021-07-28 13:50:31 GMT 47.454746 0.748690 22,950 168 441 -5184
2021-07-28 13:50:29 GMT 47.459400 0.747282 23,150 168 441 -5056
2021-07-28 13:50:27 GMT 47.461636 0.746577 23,500 168 439 -4544
2021-07-28 13:50:25 GMT 47.467640 0.744746 23,500 168 439 -4544
2021-07-28 13:50:23 GMT 47.469727 0.744118 23,550 168 439 -4544
2021-07-28 13:50:20 GMT 47.477509 0.741718 23,850 168 437 -4480
2021-07-28 13:50:17 GMT 47.483421 0.739887 24,075 168 437 -4288
2021-07-28 13:50:15 GMT 47.487259 0.738693 24,225 168 437 -4096
2021-07-28 13:50:12 GMT 47.493164 0.736908 24,400 168 437 -3712
2021-07-28 13:50:11 GMT 47.494949 0.736359 24,450 168 437 -3392
2021-07-28 13:50:10 GMT 47.497009 0.735672 24,525 168 437 -3392
2021-07-28 13:50:08 GMT 47.501266 0.734367 24,625 168 438 -3072
2021-07-28 13:50:05 GMT 47.505386 0.733063 24,725 168 439 -3008
2021-07-28 13:50:02 GMT 47.518250 0.729080 25,125 168 440 -3008
2021-07-28 13:49:59 GMT 47.518250 0.729080 25,125 168 440 -3072
2021-07-28 13:49:58 GMT 47.520172 0.728531 25,125 168 440 -3136
2021-07-28 13:49:57 GMT 47.522526 0.727774 25,175 168 441 -3136
2021-07-28 13:49:56 GMT 47.528484 0.725943 25,400 168 441 -3200
2021-07-28 13:49:54 GMT 47.528484 0.725943 25,400 168 441 -3200
2021-07-28 13:49:52 GMT 47.532394 0.724746 25,450 168 442 -3136
2021-07-28 13:49:51 GMT 47.534538 0.724112 25,500 168 442 -3136
2021-07-28 13:49:50 GMT 47.540588 0.722210 25,600 168 442 -3136
2021-07-28 13:49:48 GMT 47.540588 0.722210 25,650 168 443 -3136
2021-07-28 13:49:46 GMT 47.544525 0.720978 25,750 168 443 -3008
2021-07-28 13:49:44 GMT 47.548084 0.719886 25,850 168 444 -2944
2021-07-28 13:49:42 GMT 47.552414 0.718548 25,950 168 445 -2944
2021-07-28 13:49:41 GMT 47.554321 0.717957 26,000 168 445 -2944
2021-07-28 13:49:39 GMT 47.558605 0.716647 26,100 168 446 -3008
2021-07-28 13:49:38 GMT 47.560547 0.716034 26,150 168 446 -3008
2021-07-28 13:49:37 GMT 47.564934 0.714675 26,275 168 446 -3136
2021-07-28 13:49:36 GMT 47.564934 0.714675 26,275 168 447 -3200
2021-07-28 13:49:34 GMT 47.573044 0.712120 26,475 168 447 -3264
2021-07-28 13:49:32 GMT 47.573044 0.712120 26,475 168 447 -3264
2021-07-28 13:49:31 GMT 47.575241 0.711433 26,525 168 447 -3200
2021-07-28 13:49:30 GMT 47.577209 0.710815 26,600 168 448 -3136
2021-07-28 13:49:28 GMT 47.581322 0.709534 26,700 168 449 -2816
2021-07-28 13:49:26 GMT 47.587189 0.707726 26,875 168 449 -2816
2021-07-28 13:49:22 GMT 47.593098 0.705872 27,050 168 451 -2496
2021-07-28 13:49:18 GMT 47.601837 0.703194 27,525 168 453 -2368
2021-07-28 13:49:15 GMT 47.605728 0.701958 27,525 168 454 -2304
2021-07-28 13:49:13 GMT 47.611580 0.700097 27,525 168 456 -2304
2021-07-28 13:49:11 GMT 47.615677 0.698829 27,400 168 459 -2432
2021-07-28 13:49:09 GMT 47.619873 0.697563 27,475 168 459 -2432
2021-07-28 13:49:08 GMT 47.622288 0.696787 27,525 168 459 -2432
2021-07-28 13:49:06 GMT 47.626244 0.695590 27,600 168 461 -2560
2021-07-28 13:49:04 GMT 47.632389 0.693688 27,825 168 462 -3008
2021-07-28 13:49:01 GMT 47.640209 0.691223 27,975 168 463 -3200
2021-07-28 13:48:55 GMT 47.648869 0.688547 28,350 168 463 -3968
2021-07-28 13:48:52 GMT 47.655247 0.686575 28,350 168 463 -3968
2021-07-28 13:48:48 GMT 47.666336 0.683144 28,725 168 463 -4032
2021-07-28 13:48:46 GMT 47.668423 0.682490 28,775 168 463 -3712
2021-07-28 13:48:44 GMT 47.673019 0.681015 28,925 168 464 -3584
2021-07-28 13:48:43 GMT 47.675030 0.680378 28,975 168 464 -3456
2021-07-28 13:48:42 GMT 47.677277 0.679710 29,050 168 465 -3072
2021-07-28 13:48:40 GMT 47.681396 0.678406 29,150 168 465 -3072
2021-07-28 13:48:38 GMT 47.683739 0.677631 29,300 168 465 -3072
2021-07-28 13:48:36 GMT 47.688251 0.676223 29,300 168 465 -3264
2021-07-28 13:48:35 GMT 47.690720 0.675448 29,425 168 465 -3264
2021-07-28 13:48:33 GMT 47.699936 0.672631 29,600 167 466 -3392
2021-07-28 13:48:31 GMT 47.699936 0.672631 29,650 167 466 -3392
2021-07-28 13:48:30 GMT 47.701145 0.672208 29,800 168 467 -3328
2021-07-28 13:48:28 GMT 47.707058 0.670377 29,800 168 467 -3264
2021-07-28 13:48:26 GMT 47.709457 0.669617 29,850 168 467 -3200
2021-07-28 13:48:25 GMT 47.712784 0.668546 29,950 168 468 -3136
2021-07-28 13:48:22 GMT 47.719849 0.666321 30,125 168 469 -3200
2021-07-28 13:48:20 GMT 47.726238 0.664321 30,275 168 469 -3328
2021-07-28 13:48:16 GMT 47.730614 0.662983 30,400 168 469 -3328
2021-07-28 13:48:13 GMT 47.737038 0.660940 31,025 168 470 -3136
2021-07-28 13:48:09 GMT 47.746536 0.658012 31,025 168 471 -3392
2021-07-28 13:48:06 GMT 47.751617 0.656433 31,025 168 471 -3392
2021-07-28 13:48:04 GMT 47.755844 0.655095 31,025 168 471 -3584
2021-07-28 13:48:00 GMT 47.765575 0.652067 31,450 168 467 -4352
2021-07-28 13:47:57 GMT 47.772045 0.650024 31,450 168 467 -4352
2021-07-28 13:47:53 GMT 47.779266 0.647781 31,750 168 466 -4544
2021-07-28 13:47:49 GMT 47.789223 0.644672 32,600 168 462 -4224
2021-07-28 13:47:47 GMT 47.791168 0.644073 32,250 168 462 -4224
2021-07-28 13:47:44 GMT 47.799652 0.641433 32,875 168 461 -4032
2021-07-28 13:47:42 GMT 47.802933 0.640434 32,875 168 461 -4032
2021-07-28 13:47:39 GMT 47.810028 0.638237 32,875 168 460 -4032
2021-07-28 13:47:34 GMT 47.820415 0.634953 33,400 168 458 -3776
2021-07-28 13:47:30 GMT 47.828793 0.632348 33,525 168 457 -3648
2021-07-28 13:47:27 GMT 47.834106 0.630684 33,525 168 457 -3648
2021-07-28 13:47:24 GMT 47.839417 0.629036 33,775 168 457 -3456
2021-07-28 13:47:22 GMT 47.844772 0.627319 34,050 168 456 -3520
2021-07-28 13:47:18 GMT 47.853840 0.624460 34,250 168 456 -3584
2021-07-28 13:47:13 GMT 47.868484 0.619904 34,700 168 454 -3776
2021-07-28 13:47:10 GMT 47.868484 0.619904 34,750 168 453 -3328
2021-07-28 13:47:07 GMT 47.875626 0.617699 34,950 168 453 -3328
2021-07-28 13:47:04 GMT 47.882420 0.615516 35,575 168 453 -3136
2021-07-28 13:47:01 GMT 47.886471 0.614248 35,425 168 453 -3008
2021-07-28 13:46:58 GMT 47.892990 0.612206 35,425 168 453 -2944
2021-07-28 13:46:55 GMT 47.899971 0.610023 35,425 168 453 -3008
2021-07-28 13:46:52 GMT 47.906582 0.607981 36,600 168 457 -1728
2021-07-28 13:46:49 GMT 47.912960 0.605938 35,875 168 453 -3072
2021-07-28 13:46:45 GMT 47.921200 0.603403 36,125 168 456 -2112
2021-07-28 13:46:41 GMT 47.929733 0.600677 36,125 168 454 -2816
2021-07-28 13:46:38 GMT 47.934219 0.599304 36,225 168 454 -2560
2021-07-28 13:46:35 GMT 47.940811 0.597244 36,500 168 455 -2176
2021-07-28 13:46:31 GMT 47.946896 0.595304 36,600 168 457 -1728
2021-07-28 13:46:29 GMT 47.953537 0.593193 36,650 168 458 -1408
2021-07-28 13:46:25 GMT 47.962280 0.590446 36,675 168 460 -1280
2021-07-28 13:46:22 GMT 47.970406 0.587909 36,725 168 463 -832
2021-07-28 13:46:19 GMT 47.974316 0.586712 36,850 168 461 -1152
2021-07-28 13:46:15 GMT 47.982788 0.583992 36,900 168 463 -768
2021-07-28 13:46:12 GMT 47.988049 0.582346 36,950 168 463 -704
2021-07-28 13:46:09 GMT 47.995468 0.580009 36,975 168 464 -384
2021-07-28 13:46:06 GMT 48.005081 0.576988 36,975 167 465 -192
2021-07-28 13:46:04 GMT 48.005081 0.576988 36,975 167 465 -128
2021-07-28 13:46:01 GMT 48.014256 0.574036 37,000 167 465 0
2021-07-28 13:45:58 GMT 48.025589 0.570465 37,000 167 465 0
2021-07-28 13:45:55 GMT 48.025589 0.570465 37,000 168 465 0
2021-07-28 13:45:52 GMT 48.029938 0.569092 37,000 167 465 0
2021-07-28 13:45:49 GMT 48.037582 0.566689 37,000 167 465 0
2021-07-28 13:45:46 GMT 48.044842 0.564387 37,000 167 465 0
2021-07-28 13:45:42 GMT 48.051178 0.562363 37,000 167 465 0
2021-07-28 13:45:40 GMT 48.055691 0.560937 37,000 167 465 0
2021-07-28 13:45:37 GMT 48.061974 0.558965 37,000 167 465 0
2021-07-28 13:45:35 GMT 48.064270 0.558243 37,000 167 465 0
2021-07-28 13:45:33 GMT 48.070541 0.556252 36,975 167 465 0
2021-07-28 13:45:30 GMT 48.077663 0.553964 36,975 167 465 0
2021-07-28 13:45:27 GMT 48.083527 0.552133 36,975 167 465 0
2021-07-28 13:45:24 GMT 48.090137 0.550021 36,975 168 465 0
2021-07-28 13:45:21 GMT 48.095539 0.548330 36,975 168 465 0
2021-07-28 13:45:19 GMT 48.102009 0.546288 36,975 168 465 0
2021-07-28 13:45:16 GMT 48.106293 0.544922 36,975 168 465 0
2021-07-28 13:45:14 GMT 48.109589 0.543892 37,000 168 465 -64
2021-07-28 13:45:11 GMT 48.117096 0.541557 37,000 168 464 -64
2021-07-28 13:45:09 GMT 48.121002 0.540302 37,000 168 464 0
2021-07-28 13:45:06 GMT 48.127121 0.538330 37,000 168 464 -64
2021-07-28 13:45:03 GMT 48.138180 0.534879 37,000 168 464 -64
2021-07-28 13:45:01 GMT 48.138180 0.534879 37,000 168 464 0
2021-07-28 13:44:58 GMT 48.144047 0.533048 37,000 168 464 -64
2021-07-28 13:44:54 GMT 48.160011 0.527978 37,000 167 464 0
2021-07-28 13:44:51 GMT 48.160011 0.527978 37,000 168 464 -64
2021-07-28 13:44:49 GMT 48.164062 0.526710 37,000 168 464 0
2021-07-28 13:44:45 GMT 48.170929 0.524527 37,000 167 464 0
2021-07-28 13:44:42 GMT 48.176926 0.522625 37,000 167 464 0
2021-07-28 13:44:39 GMT 48.183475 0.520550 37,000 167 464 0
2021-07-28 13:44:37 GMT 48.187477 0.519249 37,000 167 464 0
2021-07-28 13:44:35 GMT 48.191986 0.517836 37,000 167 464 0
2021-07-28 13:44:32 GMT 48.198463 0.515779 37,000 167 464 0
2021-07-28 13:44:30 GMT 48.203026 0.514334 37,000 167 464 0
2021-07-28 13:44:27 GMT 48.209778 0.512165 37,000 167 464 0
2021-07-28 13:44:23 GMT 48.218155 0.509491 37,000 167 464 0
2021-07-28 13:44:20 GMT 48.224998 0.507323 37,000 167 464 0
2021-07-28 13:44:17 GMT 48.232544 0.504878 37,000 167 464 0
2021-07-28 13:44:14 GMT 48.235706 0.503926 37,000 167 464 0
2021-07-28 13:44:12 GMT 48.240875 0.502263 37,000 167 465 0
2021-07-28 13:44:09 GMT 48.246140 0.500582 37,000 167 465 0
2021-07-28 13:44:07 GMT 48.250370 0.499227 37,000 167 465 0
2021-07-28 13:44:05 GMT 48.255524 0.497554 37,000 167 465 0
2021-07-28 13:44:02 GMT 48.261684 0.495613 37,000 167 465 0
2021-07-28 13:43:59 GMT 48.268158 0.493540 37,000 167 465 64
2021-07-28 13:43:56 GMT 48.273460 0.491855 37,000 167 465 64
2021-07-28 13:43:53 GMT 48.282806 0.488892 37,000 167 465 64
2021-07-28 13:43:50 GMT 48.285934 0.487880 37,000 167 465 0
2021-07-28 13:43:48 GMT 48.290039 0.486568 37,000 167 465 0
2021-07-28 13:43:46 GMT 48.303810 0.482170 37,000 167 465 0
2021-07-28 13:43:43 GMT 48.303810 0.482170 37,000 167 465 0
2021-07-28 13:43:40 GMT 48.307068 0.481145 37,000 167 465 0
2021-07-28 13:43:37 GMT 48.313400 0.479062 37,000 167 465 0
2021-07-28 13:43:35 GMT 48.317184 0.477835 37,000 167 465 0
2021-07-28 13:43:32 GMT 48.325134 0.475303 37,000 167 465 0
2021-07-28 13:43:29 GMT 48.329269 0.474032 37,000 167 465 0
2021-07-28 13:43:27 GMT 48.335560 0.471978 37,000 167 464 0
2021-07-28 13:43:24 GMT 48.342262 0.469810 37,000 167 464 0
2021-07-28 13:43:20 GMT 48.350132 0.467280 36,975 167 464 64
2021-07-28 13:43:17 GMT 48.356510 0.465257 36,975 167 464 64
2021-07-28 13:43:14 GMT 48.362915 0.463116 36,975 167 464 64
2021-07-28 13:43:10 GMT 48.369507 0.461003 36,975 167 464 64
2021-07-28 13:43:08 GMT 48.374496 0.459383 36,975 167 464 64
2021-07-28 13:43:04 GMT 48.384396 0.456222 36,975 167 464 64
2021-07-28 13:43:01 GMT 48.390354 0.454270 36,975 167 464 0
2021-07-28 13:42:58 GMT 48.395332 0.452680 36,975 167 464 0
2021-07-28 13:42:54 GMT 48.405251 0.449500 36,975 167 463 0
2021-07-28 13:42:50 GMT 48.413395 0.446826 36,975 167 463 0
2021-07-28 13:42:47 GMT 48.425827 0.442850 36,975 167 463 0
2021-07-28 13:42:44 GMT 48.425827 0.442850 36,975 167 463 0
2021-07-28 13:42:41 GMT 48.432220 0.440791 36,975 168 462 0
2021-07-28 13:42:38 GMT 48.442352 0.437574 36,975 168 462 0
2021-07-28 13:42:33 GMT 48.449432 0.435298 36,975 168 462 0
2021-07-28 13:42:31 GMT 48.454834 0.433608 36,975 168 462 0
2021-07-28 13:42:27 GMT 48.460052 0.431918 36,975 168 462 0
2021-07-28 13:42:25 GMT 48.465591 0.430157 36,975 168 462 0
2021-07-28 13:42:22 GMT 48.469772 0.428828 36,975 167 461 0
2021-07-28 13:42:19 GMT 48.476624 0.426636 36,975 168 462 0
2021-07-28 13:42:16 GMT 48.484158 0.424275 36,975 167 461 0
2021-07-28 13:42:13 GMT 48.490673 0.422179 36,975 167 461 0
2021-07-28 13:42:09 GMT 48.497330 0.420010 36,975 167 461 0
2021-07-28 13:42:06 GMT 48.506744 0.416987 36,975 167 461 0
2021-07-28 13:42:03 GMT 48.512558 0.415156 36,975 167 459 -64
2021-07-28 13:41:59 GMT 48.521027 0.412421 36,975 167 460 0
2021-07-28 13:41:57 GMT 48.524284 0.411337 36,975 167 460 0
2021-07-28 13:41:55 GMT 48.528305 0.410086 36,975 167 460 0
2021-07-28 13:41:52 GMT 48.533642 0.408301 36,975 167 460 0
2021-07-28 13:41:49 GMT 48.540985 0.405931 36,975 167 460 0
2021-07-28 13:41:46 GMT 48.546021 0.404311 36,975 167 460 0
2021-07-28 13:41:44 GMT 48.550400 0.402880 36,975 167 460 0
2021-07-28 13:41:42 GMT 48.556267 0.400929 36,975 167 460 0
2021-07-28 13:41:39 GMT 48.560394 0.399592 36,975 167 460 0
2021-07-28 13:41:36 GMT 48.566505 0.397604 36,975 167 460 0
2021-07-28 13:41:34 GMT 48.570976 0.396158 36,975 167 460 0
2021-07-28 13:41:31 GMT 48.576233 0.394451 36,975 167 460 -64
2021-07-28 13:41:28 GMT 48.589737 0.390087 36,975 167 460 -64
2021-07-28 13:41:25 GMT 48.589737 0.390087 36,975 167 460 -64
2021-07-28 13:41:22 GMT 48.596146 0.388043 36,975 167 459 -64
2021-07-28 13:41:19 GMT 48.601654 0.386256 37,000 167 459 -64
2021-07-28 13:41:17 GMT 48.606773 0.384666 36,975 167 459 -64
2021-07-28 13:41:15 GMT 48.610966 0.383293 37,000 167 459 -64
2021-07-28 13:41:12 GMT 48.615993 0.381630 37,000 167 459 -64
2021-07-28 13:41:10 GMT 48.621826 0.379803 37,000 167 459 -64
2021-07-28 13:41:08 GMT 48.625256 0.378667 37,000 167 458 -64
2021-07-28 13:41:05 GMT 48.630470 0.377005 37,000 167 459 -64
2021-07-28 13:41:02 GMT 48.636986 0.374908 37,000 167 458 -64
2021-07-28 13:41:00 GMT 48.640804 0.373680 37,000 167 458 -64
2021-07-28 13:40:58 GMT 48.645309 0.372197 37,000 167 458 -64
2021-07-28 13:40:54 GMT 48.653744 0.369488 37,000 167 458 -64
2021-07-28 13:40:52 GMT 48.658585 0.367901 37,000 167 458 -64
2021-07-28 13:40:49 GMT 48.665756 0.365585 37,025 167 458 -64
2021-07-28 13:40:46 GMT 48.676529 0.362056 37,025 167 458 -64
2021-07-28 13:40:43 GMT 48.676529 0.362056 37,025 167 458 -64
2021-07-28 13:40:41 GMT 48.681305 0.360525 37,025 167 458 -64
2021-07-28 13:40:38 GMT 48.688473 0.358212 37,025 167 459 0
2021-07-28 13:40:35 GMT 48.692688 0.356844 37,025 167 459 0
2021-07-28 13:40:33 GMT 48.702160 0.353731 37,025 167 459 0
2021-07-28 13:40:31 GMT 48.702160 0.353731 37,025 167 459 0
2021-07-28 13:40:28 GMT 48.708069 0.351844 37,025 167 459 0
2021-07-28 13:40:26 GMT 48.711937 0.350623 37,025 167 459 0
2021-07-28 13:40:22 GMT 48.719376 0.348182 37,000 167 460 64
2021-07-28 13:40:20 GMT 48.725529 0.346214 37,025 167 459 64
2021-07-28 13:40:17 GMT 48.730976 0.344407 37,025 167 459 64
2021-07-28 13:40:14 GMT 48.736267 0.342689 37,000 167 460 64
2021-07-28 13:40:12 GMT 48.740799 0.341227 37,000 167 460 64
2021-07-28 13:40:09 GMT 48.748528 0.338769 37,000 167 460 64
2021-07-28 13:40:06 GMT 48.752529 0.337468 37,000 167 460 64
2021-07-28 13:40:04 GMT 48.758148 0.335646 37,000 167 460 64
2021-07-28 13:40:02 GMT 48.761627 0.334520 37,000 167 460 64
2021-07-28 13:39:59 GMT 48.775063 0.330168 36,975 167 461 64
2021-07-28 13:39:56 GMT 48.775063 0.330168 36,975 167 461 0
2021-07-28 13:39:53 GMT 48.781357 0.328111 36,975 167 461 0
2021-07-28 13:39:49 GMT 48.789818 0.325325 36,975 167 460 0
2021-07-28 13:39:46 GMT 48.797825 0.322723 36,975 167 460 0
2021-07-28 13:39:41 GMT 48.810486 0.318531 36,975 167 460 0
2021-07-28 13:39:39 GMT 48.810486 0.318531 36,975 167 460 0
2021-07-28 13:39:37 GMT 48.814770 0.317158 36,975 167 460 0
2021-07-28 13:39:35 GMT 48.818680 0.315857 36,975 167 460 0
2021-07-28 13:39:33 GMT 48.822693 0.314589 36,975 167 460 64
2021-07-28 13:39:29 GMT 48.830795 0.311913 36,975 167 460 64
2021-07-28 13:39:26 GMT 48.835236 0.310505 36,975 167 460 64
2021-07-28 13:39:24 GMT 48.841690 0.308392 36,975 167 460 64
2021-07-28 13:39:22 GMT 48.843864 0.307689 36,975 167 460 64
2021-07-28 13:39:19 GMT 48.850754 0.305449 36,975 167 460 0
2021-07-28 13:39:17 GMT 48.855148 0.303955 36,975 167 459 0
2021-07-28 13:39:15 GMT 48.860577 0.302196 36,975 167 459 0
2021-07-28 13:39:12 GMT 48.868057 0.299730 36,975 167 459 0
2021-07-28 13:39:09 GMT 48.872074 0.298438 36,975 167 459 0
2021-07-28 13:39:07 GMT 48.882431 0.295011 36,975 167 459 0
2021-07-28 13:39:04 GMT 48.887112 0.293451 36,975 167 459 0
2021-07-28 13:39:01 GMT 48.887112 0.293451 36,975 167 459 0
2021-07-28 13:38:58 GMT 48.896896 0.290293 36,975 167 459 0
2021-07-28 13:38:55 GMT 48.903397 0.288109 36,975 167 458 0
2021-07-28 13:38:52 GMT 48.907242 0.286912 36,975 168 456 0
2021-07-28 13:38:49 GMT 48.913971 0.284705 36,975 167 458 0
2021-07-28 13:38:47 GMT 48.918118 0.283332 36,975 168 457 0
2021-07-28 13:38:45 GMT 48.921097 0.282392 36,975 168 457 0
2021-07-28 13:38:42 GMT 48.934250 0.278250 36,975 168 456 0
2021-07-28 13:38:39 GMT 48.940971 0.276176 36,975 168 456 -64
2021-07-28 13:38:36 GMT 48.940971 0.276176 36,975 168 456 -64
2021-07-28 13:38:34 GMT 48.949677 0.273531 36,975 168 456 -64
2021-07-28 13:38:29 GMT 48.954895 0.271982 36,975 168 456 -64
2021-07-28 13:38:27 GMT 48.960293 0.270321 36,975 168 456 0
2021-07-28 13:38:24 GMT 48.963409 0.269376 36,975 168 456 0
2021-07-28 13:38:22 GMT 48.969498 0.267475 36,975 168 455 0
2021-07-28 13:38:20 GMT 48.974445 0.265985 36,975 168 455 0
2021-07-28 13:38:17 GMT 48.980263 0.264250 36,975 168 455 0
2021-07-28 13:38:15 GMT 48.983551 0.263249 36,975 168 455 0
2021-07-28 13:38:12 GMT 48.989574 0.261359 36,975 168 456 0
2021-07-28 13:38:10 GMT 48.998337 0.258672 36,975 168 456 0
2021-07-28 13:38:08 GMT 48.998337 0.258672 36,975 168 456 0
2021-07-28 13:38:06 GMT 49.002514 0.257384 36,975 168 456 0
2021-07-28 13:38:03 GMT 49.009277 0.255291 36,975 168 456 0
2021-07-28 13:38:01 GMT 49.011497 0.254565 36,975 168 456 0
2021-07-28 13:37:59 GMT 49.016762 0.252902 36,975 168 456 0
2021-07-28 13:37:57 GMT 49.020996 0.251601 36,975 168 456 0
2021-07-28 13:37:55 GMT 49.025436 0.250221 36,975 168 456 0
2021-07-28 13:37:52 GMT 49.031845 0.248178 36,975 168 456 0
2021-07-28 13:37:49 GMT 49.042923 0.244728 36,975 168 456 0
2021-07-28 13:37:47 GMT 49.042923 0.244728 36,975 168 456 0
2021-07-28 13:37:44 GMT 49.047298 0.243289 36,975 168 456 0
2021-07-28 13:37:42 GMT 49.052444 0.241699 36,975 168 456 0
2021-07-28 13:37:40 GMT 49.056515 0.240398 36,975 168 456 0
2021-07-28 13:37:38 GMT 49.060501 0.239164 36,975 168 456 0
2021-07-28 13:37:34 GMT 49.067871 0.236840 36,975 168 456 0
2021-07-28 13:37:32 GMT 49.072063 0.235483 36,975 168 456 0
2021-07-28 13:37:29 GMT 49.078125 0.233600 36,975 168 456 0
2021-07-28 13:37:27 GMT 49.082443 0.232231 36,975 168 456 0
2021-07-28 13:37:24 GMT 49.088264 0.230351 36,975 168 456 0
2021-07-28 13:37:21 GMT 49.096317 0.227822 36,975 168 455 0
2021-07-28 13:37:18 GMT 49.100739 0.226448 36,975 168 455 0
2021-07-28 13:37:16 GMT 49.104996 0.225079 36,975 168 455 0
2021-07-28 13:37:14 GMT 49.117126 0.221244 36,975 168 455 0
2021-07-28 13:37:11 GMT 49.117126 0.221244 37,000 168 455 -64
2021-07-28 13:37:08 GMT 49.122478 0.219510 37,000 168 455 0
2021-07-28 13:37:03 GMT 49.129944 0.217191 37,000 168 455 -64
2021-07-28 13:37:01 GMT 49.135162 0.215571 37,000 168 455 -64
2021-07-28 13:36:59 GMT 49.141708 0.213459 37,000 168 455 0
2021-07-28 13:36:56 GMT 49.147617 0.211559 37,000 168 455 0
2021-07-28 13:36:54 GMT 49.150314 0.210712 37,000 168 455 0
2021-07-28 13:36:52 GMT 49.155716 0.209022 37,000 168 455 0
2021-07-28 13:36:50 GMT 49.159908 0.207728 37,000 168 455 0
2021-07-28 13:36:48 GMT 49.163120 0.206644 37,000 168 455 0
2021-07-28 13:36:46 GMT 49.168472 0.204982 37,000 168 455 0
2021-07-28 13:36:43 GMT 49.172245 0.203753 37,000 168 455 0
2021-07-28 13:36:40 GMT 49.179924 0.201368 37,000 168 455 0
2021-07-28 13:36:37 GMT 49.185139 0.199705 37,000 168 455 0
2021-07-28 13:36:35 GMT 49.197056 0.195947 37,000 168 456 0
2021-07-28 13:36:32 GMT 49.197056 0.195947 37,000 168 456 0
2021-07-28 13:36:30 GMT 49.200363 0.194863 37,000 168 456 64
2021-07-28 13:36:27 GMT 49.206741 0.192839 36,975 168 456 64
2021-07-28 13:36:24 GMT 49.217632 0.189442 36,975 168 456 64
2021-07-28 13:36:22 GMT 49.217632 0.189442 36,975 168 456 64
2021-07-28 13:36:18 GMT 49.225113 0.187049 36,975 168 456 64
2021-07-28 13:36:16 GMT 49.228249 0.186045 36,975 168 456 64
2021-07-28 13:36:14 GMT 49.233322 0.184382 36,975 168 456 64
2021-07-28 13:36:11 GMT 49.240219 0.182190 36,975 168 456 64
2021-07-28 13:36:08 GMT 49.246170 0.180263 36,975 168 456 0
2021-07-28 13:36:06 GMT 49.252548 0.178239 36,975 168 456 0
2021-07-28 13:36:02 GMT 49.263161 0.174769 36,975 168 456 -64
2021-07-28 13:36:00 GMT 49.263161 0.174769 36,975 168 456 -64
2021-07-28 13:35:57 GMT 49.274101 0.171228 36,975 168 456 -64
2021-07-28 13:35:54 GMT 49.274101 0.171228 36,975 167 457 0
2021-07-28 13:35:51 GMT 49.280548 0.169161 36,975 168 456 0
2021-07-28 13:35:49 GMT 49.284576 0.167823 36,975 167 456 0
2021-07-28 13:35:47 GMT 49.291279 0.165662 37,000 167 456 0
2021-07-28 13:35:44 GMT 49.295517 0.164232 37,000 167 456 0
2021-07-28 13:35:42 GMT 49.299591 0.162893 37,000 167 456 0
2021-07-28 13:35:39 GMT 49.304764 0.161203 36,975 167 456 0
2021-07-28 13:35:37 GMT 49.309666 0.159591 36,975 167 456 0
2021-07-28 13:35:34 GMT 49.316208 0.157471 36,975 167 457 0
2021-07-28 13:35:32 GMT 49.322189 0.155471 36,975 167 457 0
2021-07-28 13:35:29 GMT 49.328384 0.153456 36,975 167 457 0
2021-07-28 13:35:26 GMT 49.333733 0.151640 36,975 167 457 -64
2021-07-28 13:35:23 GMT 49.340019 0.149544 37,000 167 457 -64
2021-07-28 13:35:20 GMT 49.345184 0.147893 37,000 167 457 -64
2021-07-28 13:35:17 GMT 49.351227 0.145851 37,000 167 457 -64
2021-07-28 13:35:15 GMT 49.355240 0.144557 37,000 167 457 -64
2021-07-28 13:35:12 GMT 49.362316 0.142172 37,000 167 457 -64
2021-07-28 13:35:09 GMT 49.368759 0.140005 37,000 167 457 0
2021-07-28 13:35:06 GMT 49.378235 0.136836 37,000 167 457 0
2021-07-28 13:35:04 GMT 49.378235 0.136836 37,000 167 457 0
2021-07-28 13:35:02 GMT 49.388527 0.133354 37,000 167 457 0
2021-07-28 13:34:59 GMT 49.388527 0.133354 37,000 167 457 0
2021-07-28 13:34:56 GMT 49.393787 0.131619 37,000 167 457 64
2021-07-28 13:34:54 GMT 49.399048 0.129812 37,000 167 457 64
2021-07-28 13:34:51 GMT 49.404308 0.128077 37,000 167 457 64
2021-07-28 13:34:49 GMT 49.409336 0.126343 37,000 167 457 64
2021-07-28 13:34:46 GMT 49.415131 0.124371 37,000 167 457 64
2021-07-28 13:34:43 GMT 49.422501 0.121906 36,975 167 457 0
2021-07-28 13:34:39 GMT 49.430923 0.119043 37,000 167 457 0
2021-07-28 13:34:36 GMT 49.435226 0.117597 37,000 167 457 0
2021-07-28 13:34:34 GMT 49.440628 0.115790 37,000 167 458 0
2021-07-28 13:34:31 GMT 49.445892 0.113983 37,000 167 458 0
2021-07-28 13:34:28 GMT 49.451889 0.111887 36,975 167 458 0
2021-07-28 13:34:25 GMT 49.457050 0.110160 36,975 167 459 0
2021-07-28 13:34:22 GMT 49.470886 0.105454 36,975 167 459 0
2021-07-28 13:34:19 GMT 49.470886 0.105454 37,000 167 461 64
2021-07-28 13:34:16 GMT 49.476654 0.103503 36,975 167 459 0
2021-07-28 13:34:13 GMT 49.483749 0.101045 36,975 167 459 0
2021-07-28 13:34:09 GMT 49.491360 0.098506 36,975 167 459 -64
2021-07-28 13:34:07 GMT 49.495270 0.097095 36,975 167 459 -64
2021-07-28 13:34:02 GMT 49.506134 0.093384 36,975 167 459 -64
2021-07-28 13:34:00 GMT 49.509094 0.092419 36,975 167 459 -64
2021-07-28 13:33:58 GMT 49.513458 0.090926 37,000 167 459 -64
2021-07-28 13:33:56 GMT 49.517670 0.089481 37,000 167 459 -64
2021-07-28 13:33:53 GMT 49.523994 0.087297 37,000 167 458 -64
2021-07-28 13:33:51 GMT 49.528320 0.085812 37,000 167 458 -64
2021-07-28 13:33:49 GMT 49.534882 0.083554 37,000 167 458 -64
2021-07-28 13:33:46 GMT 49.539215 0.082026 37,000 167 458 -64
2021-07-28 13:33:43 GMT 49.545685 0.079795 37,000 167 458 -64
2021-07-28 13:33:41 GMT 49.549759 0.078350 37,000 167 458 -64
2021-07-28 13:33:39 GMT 49.554199 0.076832 37,025 167 459 0
2021-07-28 13:33:36 GMT 49.560699 0.074591 37,025 167 459 0
2021-07-28 13:33:33 GMT 49.567005 0.072376 37,025 167 459 -64
2021-07-28 13:33:30 GMT 49.571011 0.070966 37,025 167 459 0
2021-07-28 13:33:28 GMT 49.577271 0.068809 37,025 167 459 0
2021-07-28 13:33:25 GMT 49.583313 0.066713 37,025 167 459 0
2021-07-28 13:33:22 GMT 49.590515 0.064211 37,025 167 459 0
2021-07-28 13:33:19 GMT 49.595856 0.062304 37,025 167 459 0
2021-07-28 13:33:16 GMT 49.601177 0.060499 37,025 167 459 64
2021-07-28 13:33:12 GMT 49.608158 0.058049 37,025 167 460 64
2021-07-28 13:33:10 GMT 49.612564 0.056522 37,025 167 460 64
2021-07-28 13:33:08 GMT 49.616539 0.055080 37,025 167 460 64
2021-07-28 13:33:06 GMT 49.628632 0.050884 37,000 167 460 64
2021-07-28 13:33:03 GMT 49.628632 0.050884 37,000 167 460 64
2021-07-28 13:33:00 GMT 49.634182 0.048993 37,000 167 460 64
2021-07-28 13:32:58 GMT 49.638325 0.047508 37,000 167 460 64
2021-07-28 13:32:56 GMT 49.642776 0.045969 37,000 167 461 64
2021-07-28 13:32:53 GMT 49.649124 0.043723 37,000 167 461 64
2021-07-28 13:32:50 GMT 49.658249 0.040531 37,000 167 461 0
2021-07-28 13:32:48 GMT 49.658249 0.040531 37,000 167 461 0
2021-07-28 13:32:45 GMT 49.665558 0.038007 37,000 167 461 0
2021-07-28 13:32:42 GMT 49.671112 0.036139 37,000 167 461 0
2021-07-28 13:32:40 GMT 49.675003 0.034766 37,000 167 461 0
2021-07-28 13:32:38 GMT 49.679989 0.033033 36,975 167 461 0
2021-07-28 13:32:36 GMT 49.683949 0.031697 37,000 167 461 0
2021-07-28 13:32:34 GMT 49.688274 0.030212 36,975 167 461 0
2021-07-28 13:32:31 GMT 49.693771 0.028261 37,000 167 461 0
2021-07-28 13:32:29 GMT 49.697960 0.026872 37,000 167 460 0
2021-07-28 13:32:27 GMT 49.703018 0.025081 36,975 167 460 0
2021-07-28 13:32:25 GMT 49.707500 0.023532 36,975 167 460 0
2021-07-28 13:32:22 GMT 49.717838 0.020043 36,975 167 460 0
2021-07-28 13:32:20 GMT 49.717838 0.020043 36,975 167 460 0
2021-07-28 13:32:17 GMT 49.722977 0.018286 36,975 167 460 0
2021-07-28 13:32:15 GMT 49.733688 0.014673 36,975 167 460 0
2021-07-28 13:32:12 GMT 49.733688 0.014673 36,975 167 460 0
2021-07-28 13:32:10 GMT 49.739868 0.012576 36,975 167 460 0
2021-07-28 13:32:07 GMT 49.745590 0.010697 36,975 167 459 -64
2021-07-28 13:32:05 GMT 49.750809 0.008890 36,975 167 460 0
2021-07-28 13:32:02 GMT 49.760433 0.005642 36,975 167 459 64
2021-07-28 13:31:59 GMT 49.760433 0.005642 36,975 167 459 0
2021-07-28 13:31:56 GMT 49.767517 0.003253 36,975 167 459 0
2021-07-28 13:31:52 GMT 49.775208 0.000651 36,975 167 459 0
2021-07-28 13:31:49 GMT 49.787888 -0.003614 36,975 167 459 -64
2021-07-28 13:31:46 GMT 49.792229 -0.005122 36,975 167 459 -64
2021-07-28 13:31:42 GMT 49.795532 -0.006216 36,975 167 459 0
2021-07-28 13:31:39 GMT 49.803177 -0.008818 37,000 167 459 0
2021-07-28 13:31:36 GMT 49.808754 -0.010689 36,975 167 459 0
2021-07-28 13:31:34 GMT 49.812943 -0.012100 36,975 167 459 0
2021-07-28 13:31:31 GMT 49.818283 -0.013950 36,975 167 459 0
2021-07-28 13:31:29 GMT 49.829285 -0.017667 36,975 167 459 0
2021-07-28 13:31:26 GMT 49.829285 -0.017667 36,975 167 459 0
2021-07-28 13:31:24 GMT 49.832310 -0.018706 36,975 167 459 0
2021-07-28 13:31:22 GMT 49.841217 -0.021756 36,975 167 459 0
2021-07-28 13:31:20 GMT 49.841217 -0.021756 36,975 167 459 0
2021-07-28 13:31:18 GMT 49.845715 -0.023235 36,975 167 459 0
2021-07-28 13:31:16 GMT 49.850830 -0.025008 36,975 167 459 0
2021-07-28 13:31:14 GMT 49.853767 -0.025981 36,975 167 459 0
2021-07-28 13:31:12 GMT 49.858017 -0.027466 36,975 167 459 0
2021-07-28 13:31:10 GMT 49.864288 -0.029562 36,975 167 459 0
2021-07-28 13:31:07 GMT 49.868481 -0.030955 36,975 167 459 0
2021-07-28 13:31:04 GMT 49.878956 -0.034518 36,975 167 459 64
2021-07-28 13:31:02 GMT 49.878956 -0.034518 36,975 167 459 0
2021-07-28 13:31:00 GMT 49.888916 -0.037946 36,975 167 459 0
2021-07-28 13:30:57 GMT 49.888916 -0.037946 36,975 167 459 0
2021-07-28 13:30:54 GMT 49.896225 -0.040382 36,975 167 458 0
2021-07-28 13:30:51 GMT 49.902695 -0.042572 36,975 167 459 0
2021-07-28 13:30:48 GMT 49.911819 -0.045653 36,975 167 459 0
2021-07-28 13:30:44 GMT 49.916336 -0.047198 36,975 167 458 0
2021-07-28 13:30:42 GMT 49.919174 -0.048177 36,975 167 458 0
2021-07-28 13:30:40 GMT 49.924576 -0.050017 36,975 167 458 0
2021-07-28 13:30:37 GMT 49.931854 -0.052474 36,975 167 458 0
2021-07-28 13:30:35 GMT 49.935143 -0.053595 36,975 167 458 0
2021-07-28 13:30:32 GMT 49.942123 -0.055971 37,000 167 458 0
2021-07-28 13:30:29 GMT 49.946228 -0.057317 37,000 167 457 0
2021-07-28 13:30:27 GMT 49.952499 -0.059485 37,000 167 457 0
2021-07-28 13:30:23 GMT 49.960785 -0.062304 36,975 167 457 0
2021-07-28 13:30:20 GMT 49.973557 -0.066641 36,975 167 458 0
2021-07-28 13:30:17 GMT 49.973557 -0.066641 36,975 167 457 0
2021-07-28 13:30:14 GMT 49.982021 -0.069481 36,975 167 457 0
2021-07-28 13:30:12 GMT 49.982021 -0.069481 37,000 167 457 0
2021-07-28 13:30:09 GMT 49.987930 -0.071556 37,000 166 458 0
2021-07-28 13:30:07 GMT 49.991890 -0.072896 37,000 166 458 0
2021-07-28 13:30:05 GMT 49.997242 -0.074900 37,000 166 458 0
2021-07-28 13:30:03 GMT 50.000473 -0.076109 37,000 165 460 0
2021-07-28 13:30:00 GMT 50.006653 -0.078567 37,000 165 460 0
2021-07-28 13:29:57 GMT 50.013611 -0.081386 37,000 164 461 0
2021-07-28 13:29:55 GMT 50.017448 -0.082991 37,000 164 462 -64
2021-07-28 13:29:53 GMT 50.021896 -0.084999 37,000 163 462 0
2021-07-28 13:29:51 GMT 50.026943 -0.087223 37,000 163 463 0
2021-07-28 13:29:47 GMT 50.035904 -0.091432 37,000 163 463 0
2021-07-28 13:29:44 GMT 50.040630 -0.093681 37,000 163 463 0
2021-07-28 13:29:41 GMT 50.047073 -0.096709 37,000 163 464 64
2021-07-28 13:29:39 GMT 50.049149 -0.097689 37,000 163 464 64
2021-07-28 13:29:37 GMT 50.058506 -0.102143 36,975 163 464 0
2021-07-28 13:29:35 GMT 50.058506 -0.102143 37,000 163 464 0
2021-07-28 13:29:33 GMT 50.061676 -0.103647 36,975 163 464 0
2021-07-28 13:29:31 GMT 50.066162 -0.105743 36,975 163 463 0
2021-07-28 13:29:29 GMT 50.070469 -0.107785 36,975 163 463 0
2021-07-28 13:29:27 GMT 50.074657 -0.109715 37,000 163 463 0
2021-07-28 13:29:25 GMT 50.078754 -0.111645 36,975 163 463 0
2021-07-28 13:29:23 GMT 50.080948 -0.112610 36,975 163 463 0
2021-07-28 13:29:21 GMT 50.086529 -0.115208 36,975 163 463 0
2021-07-28 13:29:19 GMT 50.090881 -0.117308 36,975 163 463 0
2021-07-28 13:29:16 GMT 50.098076 -0.120627 36,975 163 463 0
2021-07-28 13:29:13 GMT 50.107040 -0.124825 36,975 163 463 0
2021-07-28 13:29:11 GMT 50.107040 -0.124825 36,975 163 463 0
2021-07-28 13:29:08 GMT 50.114227 -0.128150 36,975 163 463 0
2021-07-28 13:29:06 GMT 50.122471 -0.132059 36,975 163 464 64
2021-07-28 13:29:04 GMT 50.127731 -0.134510 36,975 163 464 64
2021-07-28 13:29:01 GMT 50.127731 -0.134510 36,975 163 464 64
2021-07-28 13:28:59 GMT 50.130844 -0.136028 36,975 163 463 64
2021-07-28 13:28:57 GMT 50.136017 -0.138413 36,975 163 463 64
2021-07-28 13:28:55 GMT 50.141136 -0.140818 36,975 163 463 64
2021-07-28 13:28:51 GMT 50.148972 -0.144485 36,975 163 463 64
2021-07-28 13:28:48 GMT 50.155060 -0.147304 36,975 163 463 0
2021-07-28 13:28:45 GMT 50.161377 -0.150195 36,975 163 463 0
2021-07-28 13:28:43 GMT 50.169861 -0.154180 36,975 163 463 0
2021-07-28 13:28:41 GMT 50.172272 -0.155254 36,975 163 463 0
2021-07-28 13:28:39 GMT 50.172272 -0.155254 36,975 163 463 0
2021-07-28 13:28:36 GMT 50.180241 -0.159005 36,975 163 463 0
2021-07-28 13:28:34 GMT 50.185406 -0.161380 36,975 163 463 0
2021-07-28 13:28:31 GMT 50.190434 -0.163756 36,975 163 464 0
2021-07-28 13:28:29 GMT 50.195602 -0.166205 36,975 163 463 0
2021-07-28 13:28:26 GMT 50.203983 -0.170140 36,975 163 463 0
2021-07-28 13:28:24 GMT 50.203983 -0.170140 36,975 163 463 0
2021-07-28 13:28:21 GMT 50.209846 -0.172886 36,975 163 464 0
2021-07-28 13:28:19 GMT 50.221344 -0.178383 36,975 163 463 0
2021-07-28 13:28:16 GMT 50.226326 -0.180755 36,975 163 463 0
2021-07-28 13:28:13 GMT 50.226326 -0.180755 36,975 163 463 0
2021-07-28 13:28:11 GMT 50.230610 -0.182759 36,975 163 463 0
2021-07-28 13:28:08 GMT 50.236942 -0.185803 36,975 163 463 0
2021-07-28 13:28:05 GMT 50.242153 -0.188252 36,975 163 463 0
2021-07-28 13:28:03 GMT 50.246204 -0.190182 36,975 163 463 0
2021-07-28 13:28:01 GMT 50.250069 -0.192038 36,975 163 463 0
2021-07-28 13:27:59 GMT 50.255081 -0.194429 36,975 163 463 0
2021-07-28 13:27:57 GMT 50.259247 -0.196381 36,975 163 463 0
2021-07-28 13:27:55 GMT 50.262726 -0.198043 36,975 163 463 0
2021-07-28 13:27:53 GMT 50.265896 -0.199535 36,975 163 463 0
2021-07-28 13:27:51 GMT 50.272522 -0.202741 36,975 163 463 0
2021-07-28 13:27:49 GMT 50.275543 -0.204114 36,975 163 463 0
2021-07-28 13:27:47 GMT 50.279617 -0.206066 36,975 163 462 0
2021-07-28 13:27:45 GMT 50.283772 -0.207998 36,975 163 462 0
2021-07-28 13:27:43 GMT 50.288040 -0.210041 36,975 163 462 0
2021-07-28 13:27:41 GMT 50.293121 -0.212426 36,975 163 462 0
2021-07-28 13:27:39 GMT 50.296051 -0.213872 36,975 163 462 0
2021-07-28 13:27:37 GMT 50.299927 -0.215644 36,975 163 462 0
2021-07-28 13:27:35 GMT 50.303696 -0.217414 36,975 163 463 0
2021-07-28 13:27:33 GMT 50.306854 -0.218931 36,975 163 462 0
2021-07-28 13:27:31 GMT 50.318390 -0.224425 36,975 163 462 0
2021-07-28 13:27:29 GMT 50.318390 -0.224425 36,975 163 463 0
2021-07-28 13:27:26 GMT 50.321548 -0.225870 36,975 163 463 0
2021-07-28 13:27:24 GMT 50.326786 -0.228412 36,975 163 464 0
2021-07-28 13:27:22 GMT 50.332466 -0.231084 36,975 163 464 0
2021-07-28 13:27:19 GMT 50.337708 -0.233532 36,975 163 464 0
2021-07-28 13:27:17 GMT 50.341782 -0.235483 36,975 163 464 0
2021-07-28 13:27:14 GMT 50.346222 -0.237579 36,975 163 464 0
2021-07-28 13:27:12 GMT 50.350616 -0.239675 36,975 163 464 0
2021-07-28 13:27:10 GMT 50.355927 -0.242205 36,975 163 464 0
2021-07-28 13:27:08 GMT 50.361053 -0.244663 36,975 163 464 0
2021-07-28 13:27:05 GMT 50.366913 -0.247409 36,975 163 464 0
2021-07-28 13:27:02 GMT 50.376389 -0.251890 36,975 163 464 0
2021-07-28 13:27:00 GMT 50.376389 -0.251890 36,975 163 464 0
2021-07-28 13:26:58 GMT 50.380463 -0.253873 36,975 163 464 0
2021-07-28 13:26:55 GMT 50.386459 -0.256661 36,975 163 464 0
2021-07-28 13:26:53 GMT 50.390751 -0.258698 36,975 163 465 0
2021-07-28 13:26:50 GMT 50.395870 -0.261148 36,975 163 464 0
2021-07-28 13:26:48 GMT 50.399082 -0.262707 36,975 163 464 0
2021-07-28 13:26:46 GMT 50.404175 -0.265117 36,975 163 464 0
2021-07-28 13:26:43 GMT 50.411133 -0.268442 36,975 163 465 0
2021-07-28 13:26:41 GMT 50.416077 -0.270827 36,975 163 465 0
2021-07-28 13:26:38 GMT 50.422173 -0.273693 36,975 163 465 0
2021-07-28 13:26:35 GMT 50.427612 -0.276321 36,975 163 465 0
2021-07-28 13:26:32 GMT 50.434113 -0.279429 36,975 163 465 0
2021-07-28 13:26:30 GMT 50.437042 -0.280802 36,975 163 465 0
2021-07-28 13:26:28 GMT 50.440701 -0.282527 36,975 163 465 0
2021-07-28 13:26:26 GMT 50.446098 -0.285125 36,975 163 465 -64
2021-07-28 13:26:24 GMT 50.450428 -0.287129 36,975 163 465 0
2021-07-28 13:26:22 GMT 50.452572 -0.288168 36,975 163 465 0
2021-07-28 13:26:20 GMT 50.457783 -0.290618 36,975 163 465 0
2021-07-28 13:26:18 GMT 50.464211 -0.293736 36,975 163 465 0
2021-07-28 13:26:15 GMT 50.468910 -0.295963 36,975 163 466 0
2021-07-28 13:26:12 GMT 50.477989 -0.300268 37,000 163 465 0
2021-07-28 13:26:10 GMT 50.483387 -0.302866 37,000 163 465 0
2021-07-28 13:26:08 GMT 50.489548 -0.305810 36,975 163 465 0
2021-07-28 13:26:05 GMT 50.489548 -0.305810 36,975 163 465 0
2021-07-28 13:26:02 GMT 50.494629 -0.308268 36,975 163 466 0
2021-07-28 13:26:00 GMT 50.503361 -0.312442 36,975 163 466 0
2021-07-28 13:25:58 GMT 50.503361 -0.312442 37,000 163 466 0
2021-07-28 13:25:55 GMT 50.507641 -0.314447 37,000 163 466 0
2021-07-28 13:25:53 GMT 50.512436 -0.316724 37,000 163 466 0
2021-07-28 13:25:51 GMT 50.518440 -0.319643 36,975 163 466 0
2021-07-28 13:25:49 GMT 50.522633 -0.321647 37,000 163 466 0
2021-07-28 13:25:46 GMT 50.527039 -0.323735 36,975 163 466 0
2021-07-28 13:25:44 GMT 50.533218 -0.326626 36,975 163 466 0
2021-07-28 13:25:41 GMT 50.537155 -0.328476 36,975 163 466 0
2021-07-28 13:25:39 GMT 50.542145 -0.330891 36,975 163 466 0
2021-07-28 13:25:37 GMT 50.546265 -0.332842 36,975 163 466 0
2021-07-28 13:25:34 GMT 50.556801 -0.337830 36,975 163 466 0
2021-07-28 13:25:32 GMT 50.556801 -0.337830 36,975 163 466 0
2021-07-28 13:25:30 GMT 50.561550 -0.340057 36,975 163 466 0
2021-07-28 13:25:28 GMT 50.564484 -0.341444 36,975 163 466 0
2021-07-28 13:25:26 GMT 50.569603 -0.343917 36,975 163 467 0
2021-07-28 13:25:24 GMT 50.573914 -0.345925 36,975 162 467 0
2021-07-28 13:25:22 GMT 50.583427 -0.350523 36,975 162 469 0
2021-07-28 13:25:19 GMT 50.583427 -0.350523 36,975 162 469 0
2021-07-28 13:25:17 GMT 50.587620 -0.352676 36,975 161 470 0
2021-07-28 13:25:14 GMT 50.593140 -0.355466 36,975 160 471 0
2021-07-28 13:25:12 GMT 50.598679 -0.358429 36,975 160 471 0
2021-07-28 13:25:10 GMT 50.602840 -0.360767 36,975 160 471 0
2021-07-28 13:25:07 GMT 50.607925 -0.363561 36,975 160 471 0
2021-07-28 13:25:05 GMT 50.612366 -0.366090 36,975 159 472 0
2021-07-28 13:25:03 GMT 50.621017 -0.371150 36,975 159 472 0
2021-07-28 13:25:01 GMT 50.621017 -0.371150 36,975 159 473 0
2021-07-28 13:24:59 GMT 50.625046 -0.373461 36,975 159 473 0
2021-07-28 13:24:57 GMT 50.630913 -0.376876 36,975 159 473 0
2021-07-28 13:24:54 GMT 50.634018 -0.378667 36,975 159 473 0
2021-07-28 13:24:52 GMT 50.639339 -0.381775 36,975 159 473 64
2021-07-28 13:24:50 GMT 50.643528 -0.384150 36,975 159 473 0
2021-07-28 13:24:48 GMT 50.647160 -0.386303 36,975 159 473 64
2021-07-28 13:24:45 GMT 50.652603 -0.389436 36,975 159 473 0
2021-07-28 13:24:43 GMT 50.656723 -0.391894 36,975 159 473 0
2021-07-28 13:24:40 GMT 50.664871 -0.396592 36,975 159 473 0
2021-07-28 13:24:37 GMT 50.671051 -0.400206 36,975 159 473 0
2021-07-28 13:24:34 GMT 50.675949 -0.403079 36,975 159 473 0
2021-07-28 13:24:32 GMT 50.680023 -0.405426 36,975 159 473 0
2021-07-28 13:24:30 GMT 50.685104 -0.408424 36,975 159 473 0
2021-07-28 13:24:28 GMT 50.688309 -0.410280 36,975 159 473 0
2021-07-28 13:24:26 GMT 50.699249 -0.416664 36,975 159 473 0
2021-07-28 13:24:23 GMT 50.699249 -0.416664 36,975 159 473 0
2021-07-28 13:24:21 GMT 50.702682 -0.418668 36,975 159 473 0
2021-07-28 13:24:19 GMT 50.706280 -0.420761 36,975 159 473 0
2021-07-28 13:24:17 GMT 50.712379 -0.424347 36,975 159 473 0
2021-07-28 13:24:14 GMT 50.719620 -0.428541 36,975 159 473 0
2021-07-28 13:24:11 GMT 50.723694 -0.430916 36,975 159 473 0
2021-07-28 13:24:09 GMT 50.729046 -0.434036 36,975 159 472 0
2021-07-28 13:24:06 GMT 50.732712 -0.436187 37,000 159 472 0
2021-07-28 13:24:04 GMT 50.737610 -0.439072 37,000 159 472 0
2021-07-28 13:24:02 GMT 50.741730 -0.441457 37,000 159 472 0
2021-07-28 13:24:00 GMT 50.745941 -0.443954 37,000 159 472 0
2021-07-28 13:23:57 GMT 50.751156 -0.447006 36,975 159 471 0
2021-07-28 13:23:54 GMT 50.759354 -0.451776 36,975 159 471 0
2021-07-28 13:23:51 GMT 50.763771 -0.454407 36,975 159 471 0
2021-07-28 13:23:49 GMT 50.773037 -0.459824 37,000 159 471 0
2021-07-28 13:23:47 GMT 50.773037 -0.459824 37,000 159 471 0
2021-07-28 13:23:44 GMT 50.778015 -0.462723 37,000 159 472 0
2021-07-28 13:23:41 GMT 50.785080 -0.466845 37,000 159 471 64
2021-07-28 13:23:39 GMT 50.792683 -0.471344 37,000 159 472 0
2021-07-28 13:23:37 GMT 50.792683 -0.471344 37,000 159 472 0
2021-07-28 13:23:35 GMT 50.796543 -0.473557 37,000 159 474 0
2021-07-28 13:23:32 GMT 50.803482 -0.477600 37,000 159 472 0
2021-07-28 13:23:30 GMT 50.805389 -0.478745 37,000 159 472 0
2021-07-28 13:23:28 GMT 50.810558 -0.481796 37,000 159 472 -64
2021-07-28 13:23:26 GMT 50.819916 -0.487258 37,000 159 473 -64
2021-07-28 13:23:23 GMT 50.819916 -0.487258 37,000 159 472 -64
2021-07-28 13:23:21 GMT 50.825733 -0.490723 37,000 159 473 -64
2021-07-28 13:23:19 GMT 50.829575 -0.492974 37,000 159 473 0
2021-07-28 13:23:17 GMT 50.833603 -0.495350 37,000 159 474 0
2021-07-28 13:23:15 GMT 50.837791 -0.497818 37,000 159 474 0
2021-07-28 13:23:13 GMT 50.841888 -0.500249 37,000 159 474 0
2021-07-28 13:23:10 GMT 50.848343 -0.504035 36,975 159 474 0
2021-07-28 13:23:08 GMT 50.852638 -0.506592 36,975 159 476 64
2021-07-28 13:23:05 GMT 50.860382 -0.511161 36,975 159 479 0
2021-07-28 13:23:02 GMT 50.864594 -0.513611 36,975 159 477 64
2021-07-28 13:23:00 GMT 50.868713 -0.516060 36,975 159 477 64
2021-07-28 13:22:58 GMT 50.872051 -0.518036 36,975 159 478 64
2021-07-28 13:22:56 GMT 50.877594 -0.521331 36,975 159 478 0
2021-07-28 13:22:53 GMT 50.881828 -0.523834 36,975 159 478 0
2021-07-28 13:22:51 GMT 50.885925 -0.526276 36,975 159 479 0
2021-07-28 13:22:49 GMT 50.892197 -0.529942 36,975 159 479 0
2021-07-28 13:22:47 GMT 50.895126 -0.531649 36,975 159 477 0
2021-07-28 13:22:44 GMT 50.900589 -0.534897 36,975 159 477 0
2021-07-28 13:22:42 GMT 50.905655 -0.537885 36,975 159 474 0
2021-07-28 13:22:40 GMT 50.910507 -0.540706 36,975 159 475 0
2021-07-28 13:22:38 GMT 50.912796 -0.542042 36,975 159 474 0
2021-07-28 13:22:36 GMT 50.921165 -0.547028 36,975 159 474 0
2021-07-28 13:22:32 GMT 50.926426 -0.550079 36,975 159 473 0
2021-07-28 13:22:30 GMT 50.929184 -0.551692 37,000 159 473 0
2021-07-28 13:22:28 GMT 50.937469 -0.556591 37,000 159 471 0
2021-07-28 13:22:26 GMT 50.937469 -0.556591 36,975 159 471 0
2021-07-28 13:22:24 GMT 50.948399 -0.563049 36,975 159 469 0
2021-07-28 13:22:21 GMT 50.948399 -0.563049 36,975 159 469 0
2021-07-28 13:22:18 GMT 50.953705 -0.566101 36,975 159 469 0
2021-07-28 13:22:16 GMT 50.958847 -0.569136 36,975 159 468 -64
2021-07-28 13:22:13 GMT 50.964066 -0.572180 36,975 159 468 -64
2021-07-28 13:22:11 GMT 50.969376 -0.575298 36,975 159 465 0
2021-07-28 13:22:09 GMT 50.972977 -0.577469 37,000 159 466 0
2021-07-28 13:22:07 GMT 50.977261 -0.579910 37,000 159 466 0
2021-07-28 13:22:05 GMT 50.980270 -0.581756 37,000 159 464 64
2021-07-28 13:22:02 GMT 50.987503 -0.585987 37,000 159 462 128
2021-07-28 13:22:00 GMT 50.990715 -0.587845 37,000 159 462 192
2021-07-28 13:21:58 GMT 51.001007 -0.593930 36,975 159 461 448
2021-07-28 13:21:56 GMT 51.001007 -0.593930 36,950 159 461 512
2021-07-28 13:21:53 GMT 51.006355 -0.597076 36,900 159 460 704
2021-07-28 13:21:50 GMT 51.011383 -0.600052 36,900 159 460 832
2021-07-28 13:21:47 GMT 51.017624 -0.603790 36,825 159 461 1088
2021-07-28 13:21:45 GMT 51.021297 -0.605927 36,800 159 462 1216
2021-07-28 13:21:43 GMT 51.025635 -0.608479 36,750 159 463 1344
2021-07-28 13:21:41 GMT 51.029800 -0.610929 36,675 159 464 1600
2021-07-28 13:21:39 GMT 51.033867 -0.613327 36,600 159 464 1600
2021-07-28 13:21:36 GMT 51.040573 -0.617371 36,575 159 464 1536
2021-07-28 13:21:33 GMT 51.046577 -0.620880 36,425 159 466 1472
2021-07-28 13:21:30 GMT 51.052910 -0.624619 36,225 159 467 1472
2021-07-28 13:21:27 GMT 51.055939 -0.626443 36,375 159 466 1472
2021-07-28 13:21:25 GMT 51.065571 -0.632095 36,275 159 467 1408
2021-07-28 13:21:22 GMT 51.065571 -0.632095 36,175 159 468 1408
2021-07-28 13:21:20 GMT 51.071732 -0.635797 36,175 159 468 1408
2021-07-28 13:21:18 GMT 51.075951 -0.638275 36,125 159 468 1408
2021-07-28 13:21:16 GMT 51.080048 -0.640717 36,100 159 468 1408
2021-07-28 13:21:13 GMT 51.086746 -0.644704 35,875 159 468 1408
2021-07-28 13:21:10 GMT 51.092468 -0.648119 35,900 159 468 1472
2021-07-28 13:21:07 GMT 51.097778 -0.651237 35,900 159 468 1472
2021-07-28 13:21:05 GMT 51.100624 -0.653000 35,825 159 468 1472
2021-07-28 13:21:03 GMT 51.112244 -0.659848 35,775 159 468 1472
2021-07-28 13:21:00 GMT 51.112244 -0.659848 35,725 159 468 1472
2021-07-28 13:20:58 GMT 51.116684 -0.662520 35,600 159 468 1472
2021-07-28 13:20:55 GMT 51.125111 -0.667496 35,525 159 468 1536
2021-07-28 13:20:52 GMT 51.127304 -0.668830 35,525 159 468 1536
2021-07-28 13:20:50 GMT 51.132477 -0.671873 35,450 159 468 1536
2021-07-28 13:20:47 GMT 51.143127 -0.678253 35,375 159 468 1472
2021-07-28 13:20:45 GMT 51.148201 -0.681229 35,300 159 468 1472
2021-07-28 13:20:42 GMT 51.153183 -0.684204 35,250 159 467 1408
2021-07-28 13:20:39 GMT 51.153183 -0.684204 35,200 159 468 1408
2021-07-28 13:20:37 GMT 51.158249 -0.687239 35,150 159 467 1408
2021-07-28 13:20:34 GMT 51.164154 -0.690802 35,075 159 467 1088
2021-07-28 13:20:32 GMT 51.168182 -0.693178 35,025 159 464 384
2021-07-28 13:20:30 GMT 51.172314 -0.695648 34,925 159 465 704
2021-07-28 13:20:28 GMT 51.177475 -0.698745 34,975 159 466 960
2021-07-28 13:20:26 GMT 51.180542 -0.700527 34,975 159 466 832
2021-07-28 13:20:24 GMT 51.185669 -0.703570 34,875 159 461 320
2021-07-28 13:20:21 GMT 51.192673 -0.707876 34,875 159 464 448
2021-07-28 13:20:18 GMT 51.196522 -0.710068 34,875 159 464 256
2021-07-28 13:20:16 GMT 51.204300 -0.714631 34,875 159 461 256
2021-07-28 13:20:14 GMT 51.204300 -0.714631 34,850 159 461 256
2021-07-28 13:20:12 GMT 51.209381 -0.717674 34,850 159 459 384
2021-07-28 13:20:09 GMT 51.214493 -0.720673 34,825 159 458 448
2021-07-28 13:20:07 GMT 51.222591 -0.725479 34,800 159 457 704
2021-07-28 13:20:05 GMT 51.222591 -0.725479 34,750 159 455 1088
2021-07-28 13:20:02 GMT 51.228596 -0.729065 34,700 159 455 1152
2021-07-28 13:20:00 GMT 51.231308 -0.730665 34,675 159 455 1344
2021-07-28 13:19:58 GMT 51.236465 -0.733719 34,625 159 455 1472
2021-07-28 13:19:56 GMT 51.239536 -0.735550 34,625 159 455 1536
2021-07-28 13:19:54 GMT 51.244492 -0.738534 34,525 159 455 1792
2021-07-28 13:19:51 GMT 51.249638 -0.741653 34,425 159 455 2112
2021-07-28 13:19:49 GMT 51.257877 -0.746536 34,300 159 456 2304
2021-07-28 13:19:47 GMT 51.260811 -0.748291 34,250 159 456 2304
2021-07-28 13:19:43 GMT 51.265930 -0.751419 34,125 159 457 2176
2021-07-28 13:19:41 GMT 51.271935 -0.755005 33,925 159 458 1984
2021-07-28 13:19:38 GMT 51.277103 -0.758057 33,950 159 458 1984
2021-07-28 13:19:36 GMT 51.285389 -0.763016 33,850 159 459 2112
2021-07-28 13:19:34 GMT 51.285389 -0.763016 33,725 159 459 2112
2021-07-28 13:19:31 GMT 51.288322 -0.764771 33,750 159 459 2112
2021-07-28 13:19:29 GMT 51.298050 -0.770602 33,575 159 460 1920
2021-07-28 13:19:27 GMT 51.298050 -0.770602 33,575 159 460 1920
2021-07-28 13:19:25 GMT 51.301849 -0.772903 33,500 159 460 1856
2021-07-28 13:19:23 GMT 51.304871 -0.774685 33,425 159 460 1664
2021-07-28 13:19:21 GMT 51.309177 -0.777283 33,400 159 460 1600
2021-07-28 13:19:19 GMT 51.313229 -0.779724 33,350 159 460 1600
2021-07-28 13:19:17 GMT 51.321888 -0.784912 33,275 159 460 1600
2021-07-28 13:19:15 GMT 51.327751 -0.788422 33,200 159 460 1536
2021-07-28 13:19:12 GMT 51.327751 -0.788422 33,200 159 460 1536
2021-07-28 13:19:09 GMT 51.332932 -0.791461 33,100 159 460 1536
2021-07-28 13:19:07 GMT 51.336960 -0.793911 33,025 159 460 1536
2021-07-28 13:19:05 GMT 51.340714 -0.796138 33,000 159 460 1536
2021-07-28 13:19:03 GMT 51.346115 -0.799404 32,900 159 460 1664
2021-07-28 13:19:00 GMT 51.352295 -0.803115 32,850 159 459 1792
2021-07-28 13:18:58 GMT 51.354336 -0.804367 32,800 159 459 1920
2021-07-28 13:18:56 GMT 51.360260 -0.807866 32,700 159 460 2176
2021-07-28 13:18:53 GMT 51.368530 -0.812912 32,475 159 460 2432
2021-07-28 13:18:50 GMT 51.371750 -0.814844 32,475 159 461 2624
2021-07-28 13:18:48 GMT 51.374908 -0.816700 32,400 159 461 2688
2021-07-28 13:18:46 GMT 51.379288 -0.819397 32,225 159 464 2432
2021-07-28 13:18:43 GMT 51.385208 -0.822935 32,125 159 464 2560
2021-07-28 13:18:41 GMT 51.388458 -0.824890 32,075 159 464 2432
2021-07-28 13:18:39 GMT 51.397953 -0.830612 31,975 159 465 2304
2021-07-28 13:18:37 GMT 51.397953 -0.830612 31,925 159 465 2240
2021-07-28 13:18:35 GMT 51.401958 -0.832977 31,825 159 465 2048
2021-07-28 13:18:32 GMT 51.408005 -0.836668 31,775 159 465 1920
2021-07-28 13:18:30 GMT 51.411804 -0.838895 31,700 159 465 1664
2021-07-28 13:18:28 GMT 51.415039 -0.840836 31,650 159 465 1536
2021-07-28 13:18:26 GMT 51.418167 -0.842755 31,625 159 465 1408
2021-07-28 13:18:24 GMT 51.423138 -0.845718 31,525 159 464 1344
2021-07-28 13:18:22 GMT 51.432171 -0.851135 31,475 159 464 1408
2021-07-28 13:18:19 GMT 51.432171 -0.851135 31,400 159 464 1472
2021-07-28 13:18:17 GMT 51.437347 -0.854187 31,400 159 463 1600
2021-07-28 13:18:15 GMT 51.444122 -0.858196 31,200 159 462 1600
2021-07-28 13:18:13 GMT 51.444122 -0.858196 31,175 160 459 1664
2021-07-28 13:18:11 GMT 51.448322 -0.860748 31,250 159 462 1664
2021-07-28 13:18:09 GMT 51.454002 -0.864029 31,175 160 460 1664
2021-07-28 13:18:07 GMT 51.457993 -0.866287 31,125 160 460 1664
2021-07-28 13:18:05 GMT 51.461823 -0.868454 31,075 160 459 1600
2021-07-28 13:18:03 GMT 51.466106 -0.870819 31,000 160 459 1600
2021-07-28 13:18:01 GMT 51.470261 -0.873116 30,975 160 459 1600
2021-07-28 13:17:59 GMT 51.474426 -0.875417 30,900 160 458 1728
2021-07-28 13:17:57 GMT 51.478409 -0.877644 30,825 160 458 1856
2021-07-28 13:17:55 GMT 51.482819 -0.880051 30,775 160 458 1984
2021-07-28 13:17:53 GMT 51.486309 -0.881958 30,700 160 458 2112
2021-07-28 13:17:50 GMT 51.490547 -0.884323 30,600 160 459 1920
2021-07-28 13:17:48 GMT 51.496674 -0.887740 30,525 160 459 2048
2021-07-28 13:17:46 GMT 51.498642 -0.888779 30,500 160 459 1984
2021-07-28 13:17:44 GMT 51.504868 -0.892268 30,375 160 459 1856
2021-07-28 13:17:41 GMT 51.510563 -0.895386 30,250 160 458 1600
2021-07-28 13:17:38 GMT 51.515217 -0.897980 30,250 160 458 1536
2021-07-28 13:17:36 GMT 51.519501 -0.900345 30,200 160 458 1536
2021-07-28 13:17:34 GMT 51.523544 -0.902660 30,125 160 457 1472
2021-07-28 13:17:32 GMT 51.528484 -0.905380 30,075 160 456 1408
2021-07-28 13:17:29 GMT 51.538818 -0.911255 29,950 160 456 1408
2021-07-28 13:17:26 GMT 51.538818 -0.911255 29,950 160 456 1408
2021-07-28 13:17:24 GMT 51.548782 -0.916901 29,875 160 455 1472
2021-07-28 13:17:22 GMT 51.548782 -0.916901 29,800 160 452 1536
2021-07-28 13:17:19 GMT 51.553623 -0.919647 29,775 160 454 1536
2021-07-28 13:17:17 GMT 51.556324 -0.921173 29,700 160 453 1536
2021-07-28 13:17:15 GMT 51.561356 -0.924039 29,625 160 451 1536
2021-07-28 13:17:13 GMT 51.565590 -0.926437 29,625 160 452 1536
2021-07-28 13:17:11 GMT 51.569637 -0.928726 29,575 160 451 1536
2021-07-28 13:17:09 GMT 51.574173 -0.931388 29,500 160 451 1536
2021-07-28 13:17:06 GMT 51.578979 -0.934135 29,450 160 451 1536
2021-07-28 13:17:04 GMT 51.582779 -0.936288 29,400 160 450 1536
2021-07-28 13:17:02 GMT 51.586071 -0.938187 29,325 160 449 1536
2021-07-28 13:17:00 GMT 51.590881 -0.940964 29,275 160 449 1536
2021-07-28 13:16:58 GMT 51.593857 -0.942671 29,275 160 448 1472
2021-07-28 13:16:56 GMT 51.605942 -0.949724 29,100 160 447 1408
2021-07-28 13:16:53 GMT 51.605942 -0.949724 29,075 160 447 1408
2021-07-28 13:16:50 GMT 51.610001 -0.952072 29,075 159 446 1408
2021-07-28 13:16:48 GMT 51.614731 -0.954846 28,950 159 445 1472
2021-07-28 13:16:45 GMT 51.619774 -0.957794 28,900 159 445 1536
2021-07-28 13:16:43 GMT 51.631088 -0.964432 28,825 159 443 1664
2021-07-28 13:16:40 GMT 51.631088 -0.964432 28,750 159 442 1728
2021-07-28 13:16:37 GMT 51.641842 -0.970764 28,625 160 442 1984
2021-07-28 13:16:34 GMT 51.650345 -0.975630 28,600 160 441 1984
2021-07-28 13:16:31 GMT 51.650345 -0.975630 28,425 160 440 2048
2021-07-28 13:16:28 GMT 51.658722 -0.980233 28,375 161 439 2048
2021-07-28 13:16:25 GMT 51.658722 -0.980233 28,250 161 437 1984
2021-07-28 13:16:23 GMT 51.662567 -0.982311 28,225 162 435 1984
2021-07-28 13:16:21 GMT 51.667397 -0.984650 28,075 164 432 1984
2021-07-28 13:16:18 GMT 51.673031 -0.987167 28,100 164 432 1984
2021-07-28 13:16:15 GMT 51.678635 -0.989363 27,925 168 424 2176
2021-07-28 13:16:12 GMT 51.682617 -0.990774 27,875 168 424 2176
2021-07-28 13:16:10 GMT 51.692413 -0.993595 27,750 170 421 2240
2021-07-28 13:16:08 GMT 51.692413 -0.993595 27,650 174 413 1536
2021-07-28 13:16:05 GMT 51.700123 -0.995255 27,575 173 416 2304
2021-07-28 13:16:03 GMT 51.700123 -0.995255 27,525 174 415 2240
2021-07-28 13:16:01 GMT 51.703812 -0.995896 27,450 174 415 2240
2021-07-28 13:15:59 GMT 51.712135 -0.997162 27,325 174 414 2112
2021-07-28 13:15:57 GMT 51.712135 -0.997162 27,300 174 414 2112
2021-07-28 13:15:55 GMT 51.714928 -0.997620 27,225 174 414 2112
2021-07-28 13:15:53 GMT 51.720016 -0.998345 27,125 174 413 2112
2021-07-28 13:15:51 GMT 51.727962 -0.999603 27,000 174 413 2048
2021-07-28 13:15:49 GMT 51.733749 -1.000498 26,975 174 413 1472
2021-07-28 13:15:46 GMT 51.733749 -1.000498 26,875 174 412 1472
2021-07-28 13:15:44 GMT 51.736248 -1.000900 26,850 174 414 1664
2021-07-28 13:15:42 GMT 51.748810 -1.002948 26,725 174 412 1408
2021-07-28 13:15:39 GMT 51.748810 -1.002948 26,675 174 412 1408
2021-07-28 13:15:36 GMT 51.753845 -1.003876 26,600 173 411 1472
2021-07-28 13:15:33 GMT 51.758175 -1.004562 26,525 173 410 1600
2021-07-28 13:15:30 GMT 51.762680 -1.005397 26,475 173 409 1792
2021-07-28 13:15:28 GMT 51.767624 -1.006288 26,400 173 409 1984
2021-07-28 13:15:25 GMT 51.772465 -1.007156 26,275 173 408 2368
2021-07-28 13:15:23 GMT 51.777054 -1.007996 26,200 173 408 2496
2021-07-28 13:15:21 GMT 51.779217 -1.008453 26,175 173 408 2496
2021-07-28 13:15:19 GMT 51.784801 -1.009445 26,075 173 408 2048
2021-07-28 13:15:16 GMT 51.788773 -1.010223 25,900 173 407 1216
2021-07-28 13:15:14 GMT 51.792572 -1.010965 25,950 173 408 1408
2021-07-28 13:15:12 GMT 51.797882 -1.012004 25,900 173 407 1024
2021-07-28 13:15:09 GMT 51.802368 -1.012895 25,875 173 406 896
2021-07-28 13:15:07 GMT 51.806309 -1.013641 25,850 173 405 960
2021-07-28 13:15:05 GMT 51.809288 -1.014252 25,825 173 404 960
2021-07-28 13:15:03 GMT 51.813171 -1.014973 25,800 173 403 960
2021-07-28 13:15:01 GMT 51.817574 -1.015854 25,725 172 400 768
2021-07-28 13:14:58 GMT 51.822922 -1.016903 25,700 172 399 768
2021-07-28 13:14:56 GMT 51.828323 -1.017943 25,650 172 396 832
2021-07-28 13:14:53 GMT 51.837547 -1.019821 25,625 172 395 896
2021-07-28 13:14:51 GMT 51.837547 -1.019821 25,575 172 393 896
2021-07-28 13:14:48 GMT 51.840153 -1.020355 25,550 172 389 896
2021-07-28 13:14:46 GMT 51.844994 -1.021423 25,500 171 388 896
2021-07-28 13:14:43 GMT 51.849564 -1.022471 25,475 171 389 896
2021-07-28 13:14:41 GMT 51.854187 -1.023584 25,425 171 388 896
2021-07-28 13:14:38 GMT 51.858627 -1.024698 25,375 170 388 896
2021-07-28 13:14:35 GMT 51.863297 -1.026108 25,350 168 388 1088
2021-07-28 13:14:33 GMT 51.867874 -1.027667 25,325 167 388 1280
2021-07-28 13:14:31 GMT 51.876114 -1.031008 25,125 165 391 1664
2021-07-28 13:14:29 GMT 51.876114 -1.031008 25,125 164 392 1792
2021-07-28 13:14:26 GMT 51.881397 -1.033478 25,025 162 393 2112
2021-07-28 13:14:23 GMT 51.885124 -1.035461 25,000 160 395 2240
2021-07-28 13:14:21 GMT 51.889824 -1.038132 24,775 157 398 1920
2021-07-28 13:14:18 GMT 51.897537 -1.042938 24,775 158 398 1984
2021-07-28 13:14:16 GMT 51.897537 -1.042938 24,725 158 397 1920
2021-07-28 13:14:13 GMT 51.902298 -1.046066 24,650 158 397 1984
2021-07-28 13:14:11 GMT 51.911133 -1.051788 24,425 158 395 2176
2021-07-28 13:14:08 GMT 51.911133 -1.051788 24,425 158 393 2304
2021-07-28 13:14:06 GMT 51.915161 -1.054306 24,300 159 391 2752
2021-07-28 13:14:03 GMT 51.923859 -1.059494 24,200 160 390 2880
2021-07-28 13:14:01 GMT 51.923859 -1.059494 24,050 161 388 3328
2021-07-28 13:13:58 GMT 51.928024 -1.061859 24,000 161 388 3072
2021-07-28 13:13:56 GMT 51.936493 -1.066437 23,450 162 388 3648
2021-07-28 13:13:53 GMT 51.940659 -1.068573 23,650 162 388 3648
2021-07-28 13:13:51 GMT 51.940659 -1.068573 23,375 162 388 3648
2021-07-28 13:13:48 GMT 51.945686 -1.071089 23,425 163 389 3328
2021-07-28 13:13:45 GMT 51.950203 -1.073364 23,175 163 390 3008
2021-07-28 13:13:42 GMT 51.955582 -1.075897 23,125 163 390 2944
2021-07-28 13:13:40 GMT 51.959015 -1.077576 23,000 164 389 2624
2021-07-28 13:13:38 GMT 51.962818 -1.079328 22,925 164 389 2688
2021-07-28 13:13:35 GMT 51.967659 -1.081526 22,725 164 389 2432
2021-07-28 13:13:33 GMT 51.974781 -1.084821 22,675 164 388 2112
2021-07-28 13:13:30 GMT 51.974781 -1.084821 22,625 164 387 2048
2021-07-28 13:13:28 GMT 51.979996 -1.087176 22,550 164 387 1920
2021-07-28 13:13:26 GMT 51.982773 -1.088409 22,400 164 385 1600
2021-07-28 13:13:23 GMT 51.988403 -1.091003 22,425 164 384 1600
2021-07-28 13:13:21 GMT 51.992432 -1.092911 22,325 163 384 1600
2021-07-28 13:13:18 GMT 52.000526 -1.096749 22,275 163 385 1536
2021-07-28 13:13:16 GMT 52.000526 -1.096749 22,150 162 386 1536
2021-07-28 13:13:12 GMT 52.007172 -1.100159 22,125 161 388 1536
2021-07-28 13:13:09 GMT 52.010925 -1.102219 22,050 156 393 1408
2021-07-28 13:13:07 GMT 52.014397 -1.104283 22,025 158 391 1408
2021-07-28 13:13:05 GMT 52.024174 -1.111424 21,925 150 397 1344
2021-07-28 13:13:02 GMT 52.024174 -1.111424 21,850 151 396 1344
2021-07-28 13:12:59 GMT 52.029713 -1.116211 21,850 151 396 1344
2021-07-28 13:12:56 GMT 52.033951 -1.120292 21,725 147 399 1280
2021-07-28 13:12:53 GMT 52.038513 -1.125078 21,625 145 400 1280
2021-07-28 13:12:51 GMT 52.041306 -1.128139 21,650 145 400 1280
2021-07-28 13:12:49 GMT 52.043587 -1.130729 21,600 145 400 1280
2021-07-28 13:12:47 GMT 52.047409 -1.135025 21,550 144 399 1344
2021-07-28 13:12:44 GMT 52.052803 -1.141166 21,400 144 399 1472
2021-07-28 13:12:41 GMT 52.055828 -1.144618 21,425 145 397 1472
2021-07-28 13:12:39 GMT 52.061321 -1.150818 21,300 144 395 1536
2021-07-28 13:12:37 GMT 52.061321 -1.150818 21,325 145 396 1536
2021-07-28 13:12:35 GMT 52.064442 -1.154349 21,300 144 395 1536
2021-07-28 13:12:33 GMT 52.069050 -1.159607 21,200 145 394 1536
2021-07-28 13:12:30 GMT 52.072777 -1.163845 21,100 144 392 1536
2021-07-28 13:12:27 GMT 52.077431 -1.169181 21,000 145 390 1536
2021-07-28 13:12:25 GMT 52.080547 -1.172712 21,000 144 389 1536
2021-07-28 13:12:22 GMT 52.083710 -1.176300 20,950 144 388 1536
2021-07-28 13:12:20 GMT 52.086823 -1.179810 20,900 144 387 1536
2021-07-28 13:12:18 GMT 52.089798 -1.183243 20,725 145 385 1536
2021-07-28 13:12:15 GMT 52.095108 -1.189270 20,725 145 385 1472
2021-07-28 13:12:12 GMT 52.098427 -1.192958 20,700 145 385 1472
2021-07-28 13:12:10 GMT 52.101974 -1.197052 20,600 144 384 1536
2021-07-28 13:12:08 GMT 52.111359 -1.207733 20,550 144 384 1536
2021-07-28 13:12:05 GMT 52.111359 -1.207733 20,475 144 384 1536
2021-07-28 13:12:02 GMT 52.114998 -1.211870 20,425 144 383 1792
2021-07-28 13:11:59 GMT 52.117859 -1.215134 20,325 144 383 1664
2021-07-28 13:11:57 GMT 52.120678 -1.218305 20,275 144 383 1792
2021-07-28 13:11:55 GMT 52.123672 -1.221695 20,175 145 382 2048
2021-07-28 13:11:52 GMT 52.127380 -1.225891 20,175 145 382 2176
2021-07-28 13:11:50 GMT 52.131042 -1.230011 20,050 145 381 2432
2021-07-28 13:11:47 GMT 52.135391 -1.234894 19,900 145 379 2368
2021-07-28 13:11:45 GMT 52.141708 -1.241913 19,825 145 377 2368
2021-07-28 13:11:42 GMT 52.141708 -1.241913 19,750 145 377 2368
2021-07-28 13:11:40 GMT 52.150360 -1.251526 19,575 145 376 2368
2021-07-28 13:11:37 GMT 52.153336 -1.254807 19,450 146 374 2304
2021-07-28 13:11:34 GMT 52.153336 -1.254807 19,450 146 374 2304
2021-07-28 13:11:32 GMT 52.156494 -1.258240 19,350 146 372 2304
2021-07-28 13:11:30 GMT 52.159595 -1.261544 19,275 146 372 2304
2021-07-28 13:11:28 GMT 52.164001 -1.266327 19,225 146 371 2304
2021-07-28 13:11:25 GMT 52.167023 -1.269531 19,125 146 369 1984
2021-07-28 13:11:22 GMT 52.170685 -1.273499 18,900 146 366 1472
2021-07-28 13:11:19 GMT 52.175720 -1.278915 18,900 146 366 1472
2021-07-28 13:11:17 GMT 52.177238 -1.280535 18,875 146 366 1472
2021-07-28 13:11:15 GMT 52.181892 -1.285557 18,775 146 366 1280
2021-07-28 13:11:12 GMT 52.185200 -1.289089 18,725 147 363 3648
2021-07-28 13:11:09 GMT 52.190460 -1.294708 18,625 146 363 1856
2021-07-28 13:11:06 GMT 52.193157 -1.297642 18,600 146 363 1856
2021-07-28 13:11:04 GMT 52.196835 -1.301566 18,525 146 361 2176
2021-07-28 13:11:02 GMT 52.198883 -1.303787 18,450 146 361 2240
2021-07-28 13:11:00 GMT 52.201859 -1.306992 18,375 146 360 2432
2021-07-28 13:10:58 GMT 52.205448 -1.310826 18,275 146 358 2944
2021-07-28 13:10:55 GMT 52.210056 -1.315691 17,750 146 357 3200
2021-07-28 13:10:52 GMT 52.213486 -1.319275 17,475 147 364 3136
2021-07-28 13:10:50 GMT 52.215637 -1.321564 17,900 146 356 3648
2021-07-28 13:10:48 GMT 52.219986 -1.326218 17,575 146 359 4096
2021-07-28 13:10:45 GMT 52.223370 -1.329817 17,325 147 360 4352
2021-07-28 13:10:42 GMT 52.227356 -1.334000 17,275 147 361 4288
2021-07-28 13:10:40 GMT 52.230743 -1.337585 17,025 147 363 4032
2021-07-28 13:10:37 GMT 52.232960 -1.339940 17,025 147 363 4032
2021-07-28 13:10:35 GMT 52.238068 -1.345291 16,775 147 364 3456
2021-07-28 13:10:32 GMT 52.241455 -1.348877 16,675 147 364 3456
2021-07-28 13:10:30 GMT 52.246124 -1.353683 16,525 147 364 3328
2021-07-28 13:10:28 GMT 52.246124 -1.353683 16,450 147 364 3264
2021-07-28 13:10:26 GMT 52.249741 -1.357422 16,100 147 364 3136
2021-07-28 13:10:24 GMT 52.252670 -1.360397 16,225 147 364 3072
2021-07-28 13:10:21 GMT 52.257797 -1.365662 16,000 147 364 3008
2021-07-28 13:10:18 GMT 52.262150 -1.370152 15,925 147 358 2432
2021-07-28 13:10:15 GMT 52.265259 -1.373367 15,775 147 358 2432
2021-07-28 13:10:12 GMT 52.272575 -1.380824 15,550 147 357 2432
2021-07-28 13:10:10 GMT 52.272575 -1.380824 15,575 147 359 2432
2021-07-28 13:10:08 GMT 52.279175 -1.387634 15,450 147 357 2432
2021-07-28 13:10:05 GMT 52.279175 -1.387634 15,450 147 357 2432
2021-07-28 13:10:02 GMT 52.286224 -1.394882 15,200 147 350 3136
2021-07-28 13:10:00 GMT 52.286224 -1.394882 15,175 147 353 2816
2021-07-28 13:09:58 GMT 52.288219 -1.396912 15,125 147 353 2880
2021-07-28 13:09:56 GMT 52.291534 -1.400299 14,675 147 350 3072
2021-07-28 13:09:54 GMT 52.295242 -1.404114 14,850 147 350 3136
2021-07-28 13:09:51 GMT 52.297897 -1.406860 14,750 147 349 3072
2021-07-28 13:09:49 GMT 52.305397 -1.414568 14,550 147 348 2752
2021-07-28 13:09:46 GMT 52.308884 -1.418076 14,450 147 343 2048
2021-07-28 13:09:44 GMT 52.308884 -1.418076 14,375 147 343 2048
2021-07-28 13:09:41 GMT 52.312843 -1.422180 14,200 147 344 2176
2021-07-28 13:09:38 GMT 52.316895 -1.426339 14,125 147 343 1856
2021-07-28 13:09:35 GMT 52.320107 -1.429557 13,875 147 344 1856
2021-07-28 13:09:32 GMT 52.324108 -1.433716 13,975 147 343 1600
2021-07-28 13:09:30 GMT 52.327507 -1.437247 13,925 147 343 1664
2021-07-28 13:09:28 GMT 52.330994 -1.440811 13,875 147 343 1728
2021-07-28 13:09:25 GMT 52.333786 -1.443634 13,825 147 343 1728
2021-07-28 13:09:22 GMT 52.337608 -1.447606 13,675 147 344 1920
2021-07-28 13:09:20 GMT 52.340561 -1.450577 13,600 147 343 1664
2021-07-28 13:09:18 GMT 52.343994 -1.454086 13,575 147 343 1664
2021-07-28 13:09:15 GMT 52.348022 -1.458206 13,475 147 344 1920
2021-07-28 13:09:12 GMT 52.351437 -1.461731 13,400 147 348 2240
2021-07-28 13:09:10 GMT 52.354275 -1.464634 13,325 147 348 2240
2021-07-28 13:09:07 GMT 52.363445 -1.474051 13,125 147 350 2496
2021-07-28 13:09:04 GMT 52.366287 -1.476898 13,025 147 351 2816
2021-07-28 13:09:01 GMT 52.372009 -1.482773 12,875 147 353 3264
2021-07-28 13:08:58 GMT 52.375317 -1.486293 12,800 147 352 3008
2021-07-28 13:08:55 GMT 52.380440 -1.491551 12,600 147 350 2496
2021-07-28 13:08:51 GMT 52.380440 -1.491551 12,450 147 349 2176
2021-07-28 13:08:49 GMT 52.381805 -1.492996 12,450 147 349 2176
2021-07-28 13:08:47 GMT 52.385651 -1.496966 12,350 147 348 1920
2021-07-28 13:08:44 GMT 52.390400 -1.501831 12,250 147 346 1536
2021-07-28 13:08:41 GMT 52.393101 -1.504735 12,125 147 345 1152
2021-07-28 13:08:38 GMT 52.397507 -1.509247 12,125 147 345 1088
2021-07-28 13:08:35 GMT 52.405159 -1.517290 12,050 147 345 768
2021-07-28 13:08:32 GMT 52.405159 -1.517290 12,025 147 345 640
2021-07-28 13:08:30 GMT 52.408539 -1.520844 12,000 147 345 640
2021-07-28 13:08:28 GMT 52.411469 -1.523895 11,975 147 344 512
2021-07-28 13:08:26 GMT 52.414097 -1.526629 11,975 147 344 576
2021-07-28 13:08:24 GMT 52.416004 -1.528669 11,950 147 344 512
2021-07-28 13:08:21 GMT 52.422291 -1.535261 11,900 147 343 576
2021-07-28 13:08:19 GMT 52.422291 -1.535261 11,875 146 342 704
2021-07-28 13:08:17 GMT 52.425686 -1.538949 11,875 146 341 768
2021-07-28 13:08:15 GMT 52.428909 -1.542435 11,800 146 338 1216
2021-07-28 13:08:12 GMT 52.432484 -1.546247 11,800 146 338 1280
2021-07-28 13:08:10 GMT 52.435730 -1.549835 11,725 146 333 1472
2021-07-28 13:08:07 GMT 52.437836 -1.552054 11,575 146 330 1792
2021-07-28 13:08:05 GMT 52.442001 -1.556625 11,550 146 326 1984
2021-07-28 13:08:02 GMT 52.445801 -1.560822 11,500 146 323 2304
2021-07-28 13:07:59 GMT 52.448364 -1.563568 11,400 146 322 2368
2021-07-28 13:07:57 GMT 52.450333 -1.565704 11,275 146 320 2496
2021-07-28 13:07:55 GMT 52.454178 -1.569977 11,225 146 315 2752
2021-07-28 13:07:52 GMT 52.457901 -1.574027 11,075 146 314 2752
2021-07-28 13:07:49 GMT 52.460880 -1.577244 10,950 146 312 2688
2021-07-28 13:07:47 GMT 52.463196 -1.579819 10,725 145 308 2688
2021-07-28 13:07:44 GMT 52.467361 -1.584396 10,725 145 307 2688
2021-07-28 13:07:41 GMT 52.469696 -1.586990 10,625 145 305 2688
2021-07-28 13:07:39 GMT 52.472610 -1.590193 10,525 145 302 2688
2021-07-28 13:07:37 GMT 52.479084 -1.597412 10,275 145 298 2688
2021-07-28 13:07:34 GMT 52.479084 -1.597412 10,275 145 299 2624
2021-07-28 13:07:31 GMT 52.481270 -1.599923 10,125 144 294 3072
2021-07-28 13:07:29 GMT 52.484161 -1.603165 9,975 144 294 3072
2021-07-28 13:07:26 GMT 52.487457 -1.606979 9,800 144 291 3072
2021-07-28 13:07:23 GMT 52.491760 -1.611938 9,675 144 291 3072
2021-07-28 13:07:20 GMT 52.494026 -1.614676 9,525 143 290 3072
2021-07-28 13:07:17 GMT 52.497284 -1.618679 9,450 142 289 3072
2021-07-28 13:07:14 GMT 52.501381 -1.623936 9,225 136 280 2368
2021-07-28 13:07:11 GMT 52.507015 -1.632019 9,150 138 284 2496
2021-07-28 13:07:08 GMT 52.507015 -1.632019 9,000 137 283 2368
2021-07-28 13:07:06 GMT 52.508503 -1.634295 8,925 136 280 2368
2021-07-28 13:07:03 GMT 52.511341 -1.638768 8,825 135 276 2432
2021-07-28 13:07:00 GMT 52.514511 -1.643906 8,650 135 273 2560
2021-07-28 13:06:57 GMT 52.517021 -1.648028 8,600 134 270 2688
2021-07-28 13:06:54 GMT 52.519302 -1.651794 8,450 133 266 2880
2021-07-28 13:06:51 GMT 52.521515 -1.655579 8,250 133 265 3200
2021-07-28 13:06:49 GMT 52.523586 -1.659092 8,150 132 263 3392
2021-07-28 13:06:47 GMT 52.526459 -1.664429 7,675 121 265 3840
2021-07-28 13:06:44 GMT 52.527683 -1.666940 7,550 117 267 3904
2021-07-28 13:06:41 GMT 52.529873 -1.671962 7,675 122 265 3840
2021-07-28 13:06:38 GMT 52.531689 -1.676906 7,400 113 268 3712
2021-07-28 13:06:35 GMT 52.533508 -1.683197 7,250 107 271 3520
2021-07-28 13:06:32 GMT 52.534424 -1.687241 7,075 103 271 3712
2021-07-28 13:06:29 GMT 52.535599 -1.694406 6,950 101 270 3456
2021-07-28 13:06:27 GMT 52.536060 -1.698094 6,850 101 270 3648
2021-07-28 13:06:24 GMT 52.536900 -1.705000 6,625 100 269 3904
2021-07-28 13:06:21 GMT 52.537460 -1.710022 6,475 99 268 3904
2021-07-28 13:06:18 GMT 52.538086 -1.716156 6,275 99 268 3840
2021-07-28 13:06:16 GMT 52.538406 -1.719208 6,200 95 267 3392
2021-07-28 13:06:13 GMT 52.538902 -1.725952 5,925 91 267 3072
2021-07-28 13:06:10 GMT 52.538773 -1.738739 5,775 85 265 2560
2021-07-28 13:06:07 GMT 52.538773 -1.738739 5,700 80 262 2560
2021-07-28 13:06:03 GMT 52.538017 -1.745884 5,475 76 259 3072
2021-07-28 13:06:00 GMT 52.536942 -1.752930 5,325 72 259 3200
2021-07-28 13:05:57 GMT 52.536392 -1.755905 5,150 71 259 3200
2021-07-28 13:05:55 GMT 52.535362 -1.760951 5,025 69 263 3392
2021-07-28 13:05:52 GMT 52.533550 -1.768563 4,875 64 263 3456
2021-07-28 13:05:48 GMT 52.532135 -1.773376 4,575 56 262 4096
2021-07-28 13:05:46 GMT 52.531128 -1.776097 4,475 49 262 3392
2021-07-28 13:05:44 GMT 52.529453 -1.780099 4,425 49 262 3392
2021-07-28 13:05:41 GMT 52.527451 -1.783787 4,300 45 260 2752
2021-07-28 13:05:38 GMT 52.524307 -1.788483 4,125 38 256 2560
2021-07-28 13:05:36 GMT 52.522797 -1.790301 4,075 31 251 2496
2021-07-28 13:05:33 GMT 52.519501 -1.793594 3,875 19 242 2112
2021-07-28 13:05:30 GMT 52.515793 -1.796112 3,825 16 240 1728
2021-07-28 13:05:27 GMT 52.513641 -1.797104 3,725 12 235 1408
2021-07-28 13:05:24 GMT 52.509949 -1.798070 3,650 0 220 1216
2021-07-28 13:05:21 GMT 52.507278 -1.798172 3,600 356 214 1664
2021-07-28 13:05:18 GMT 52.503433 -1.797791 3,450 345 203 1536
2021-07-28 13:05:14 GMT 52.499313 -1.796494 3,425 345 203 1536
2021-07-28 13:05:10 GMT 52.494770 -1.793910 3,275 336 190 1920
2021-07-28 13:05:07 GMT 52.493839 -1.793204 3,250 334 189 1984
2021-07-28 13:05:04 GMT 52.491837 -1.791478 3,150 328 183 2048
2021-07-28 13:05:00 GMT 52.488876 -1.788177 2,975 324 178 1856
2021-07-28 13:04:57 GMT 52.486816 -1.785660 2,900 324 169 2048
2021-07-28 13:04:54 GMT 52.484894 -1.783371 2,825 325 170 1984
2021-07-28 13:04:51 GMT 52.483017 -1.781082 2,725 324 167 1984
2021-07-28 13:04:48 GMT 52.481503 -1.779314 2,550 324 162 1984
2021-07-28 13:04:45 GMT 52.479084 -1.776411 2,500 325 160 1792
2021-07-28 13:04:42 GMT 52.477478 -1.774597 2,400 325 155 1792
2021-07-28 13:04:37 GMT 52.474915 -1.771545 2,150 325 151 3072
2021-07-28 13:04:34 GMT 52.473030 -1.769427 2,025 325 152 3072
2021-07-28 13:04:30 GMT 52.471077 -1.767151 1,925 325 152 3136
2021-07-28 13:04:27 GMT 52.468887 -1.764561 1,675 325 152 3136
2021-07-28 13:04:24 GMT 52.467407 -1.762848 1,575 326 154 3136
2021-07-28 13:04:21 GMT 52.465485 -1.760712 1,350 327 155 2816
2021-07-28 13:04:18 GMT 52.463535 -1.758597 1,225 327 155 2816
2021-07-28 13:04:15 GMT 52.461777 -1.756668 1,125 327 155 2816
2021-07-28 13:04:11 GMT 52.459576 -1.754281 925 327 155 3264
2021-07-28 13:04:08 GMT 52.457764 -1.752398 775 327 160 3008
2021-07-28 13:03:57 GMT 52.451431 -1.745300 575 327 139 -64
2021-07-28 13:03:45 GMT 52.445686 -1.738930 0 327 103 64
2021-07-28 13:03:35 GMT 52.444061 -1.737118 0 326 25
2021-07-28 13:03:30 GMT 52.443645 -1.736664 0 326 15
2021-07-28 13:03:18 GMT 52.443146 -1.736012 0 264 12
2021-07-28 13:03:11 GMT 52.443295 -1.735401 0 236 14
2021-07-28 13:02:53 GMT 52.443901 -1.734123 0 191 11
2021-07-28 13:02:50 GMT 52.444031 -1.734074 0 174 11
2021-07-28 13:01:22 GMT 52.448021 -1.736984 0 194 19
2021-07-28 13:00:37 GMT 52.450382 -1.737429 0 160 11

Making use of Plane Finder data

You are free to use the raw flight data, aircraft information and images provided in this report for your own purposes provided the data is correctly attributed to Plane Finder. We ask that you please credit Plane Finder and link to planefinder.net in close proximity to the content.

Optionally one of the following logos (no smaller then 150x24px) can be used and must link to planefinder.net

Embedding the Plane Finder map

You are welcome to embed the Plane Finder playback map on your website to offer visitors a more interactive experience. We suggest using the following HTML code:

<iframe src="//planefinder.net/data/report/VY8755-EC-MUM-7700-squawk-2021-07-28/map" width="800" height="600" seamless="seamless"></iframe>

Where our data comes from

Plane Finder has a global network of data feeds and antenna radars that receive data broadcast directly from aircraft. The primary technologies used are ADS-B and MLAT. We also show feeds from the FAA and a FLARM glider feed.

Click here to find out more about the Plane Finder network.

How we collect our data